Observation data for Fort Chadbourne on 07/16/2019      Previous  Date       Current Mesonet Observations  Soil Data  Daily Summary Page  Observations in Plain Language
KCH1 160500Z 13004KT 27/20 A2997 RMK A01 T02720195  RH  063%=      5-min Rain = 0
KCH1 160501Z 12004KT 27/20 A2997 RMK A01 T02720195  RH  063%=      5-min Rain = 0
KCH1 160502Z 13003KT 27/20 A2997 RMK A01 T02720195  RH  063%=      5-min Rain = 0
KCH1 160503Z 13003KT 27/20 A2997 RMK A01 T02710195  RH  063%=      5-min Rain = 0
KCH1 160504Z 13003KT 27/20 A2997 RMK A01 T02710195  RH  063%=      5-min Rain = 0
KCH1 160505Z 12004KT 27/20 A2997 RMK A01 T02710195  RH  063%=      5-min Rain = 0
KCH1 160506Z 13004KT 27/20 A2997 RMK A01 T02710195  RH  063%=      5-min Rain = 0
KCH1 160507Z 13004KT 27/20 A2997 RMK A01 T02710195  RH  063%=      5-min Rain = 0
KCH1 160508Z 13003KT 27/20 A2997 RMK A01 T02700195  RH  063%=      5-min Rain = 0
KCH1 160509Z 14004KT 27/20 A2997 RMK A01 T02700195  RH  063%=      5-min Rain = 0
KCH1 160510Z 13007KT 27/20 A2997 RMK A01 T02700195  RH  064%=      5-min Rain = 0
KCH1 160511Z 13006KT 27/19 A2997 RMK A01 T02710194  RH  063%=      5-min Rain = 0
KCH1 160512Z 14003KT 27/20 A2997 RMK A01 T02720196  RH  063%=      5-min Rain = 0
KCH1 160513Z 14003KT 27/20 A2997 RMK A01 T02720196  RH  063%=      5-min Rain = 0
KCH1 160514Z 12004KT 27/20 A2997 RMK A01 T02710196  RH  063%=      5-min Rain = 0
KCH1 160515Z 12004KT 27/20 A2997 RMK A01 T02700195  RH  064%=      5-min Rain = 0
KCH1 160516Z 12004KT 27/20 A2997 RMK A01 T02700196  RH  064%=      5-min Rain = 0
KCH1 160517Z 13003KT 27/20 A2997 RMK A01 T02700195  RH  064%=      5-min Rain = 0
KCH1 160518Z 12003KT 27/20 A2997 RMK A01 T02690196  RH  064%=      5-min Rain = 0
KCH1 160519Z 13003KT 27/20 A2997 RMK A01 T02690195  RH  064%=      5-min Rain = 0
KCH1 160520Z 13004KT 27/20 A2997 RMK A01 T02680195  RH  064%=      5-min Rain = 0
KCH1 160521Z 13004KT 27/20 A2997 RMK A01 T02670195  RH  064%=      5-min Rain = 0
KCH1 160522Z 13004KT 27/20 A2997 RMK A01 T02670195  RH  065%=      5-min Rain = 0
KCH1 160523Z 13004KT 27/20 A2997 RMK A01 T02670195  RH  065%=      5-min Rain = 0
KCH1 160524Z 14004KT 27/20 A2997 RMK A01 T02670195  RH  065%=      5-min Rain = 0
KCH1 160525Z 13004KT 27/20 A2997 RMK A01 T02660195  RH  065%=      5-min Rain = 0
KCH1 160526Z 13004KT 27/20 A2997 RMK A01 T02660195  RH  065%=      5-min Rain = 0
KCH1 160527Z 13004KT 27/20 A2997 RMK A01 T02660195  RH  065%=      5-min Rain = 0
KCH1 160528Z 13004KT 27/20 A2997 RMK A01 T02660195  RH  065%=      5-min Rain = 0
KCH1 160529Z 13004KT 27/20 A2997 RMK A01 T02660195  RH  065%=      5-min Rain = 0
KCH1 160530Z 13004KT 27/20 A2997 RMK A01 T02660196  RH  065%=      5-min Rain = 0
KCH1 160531Z 13003KT 27/20 A2997 RMK A01 T02650195  RH  065%=      5-min Rain = 0
KCH1 160532Z 13003KT 27/20 A2997 RMK A01 T02650195  RH  066%=      5-min Rain = 0
KCH1 160533Z 13003KT 27/20 A2997 RMK A01 T02650196  RH  066%=      5-min Rain = 0
KCH1 160534Z 13003KT 26/20 A2997 RMK A01 T02640195  RH  066%=      5-min Rain = 0
KCH1 160535Z 13003KT 26/20 A2997 RMK A01 T02640196  RH  066%=      5-min Rain = 0
KCH1 160536Z 13003KT 26/20 A2997 RMK A01 T02640196  RH  066%=      5-min Rain = 0
KCH1 160537Z 12003KT 26/20 A2997 RMK A01 T02630195  RH  066%=      5-min Rain = 0
KCH1 160538Z 12003KT 26/20 A2997 RMK A01 T02630196  RH  066%=      5-min Rain = 0
KCH1 160539Z 11003KT 26/20 A2997 RMK A01 T02630196  RH  066%=      5-min Rain = 0
KCH1 160540Z 12003KT 26/20 A2997 RMK A01 T02620196  RH  067%=      5-min Rain = 0
KCH1 160541Z 12003KT 26/20 A2997 RMK A01 T02620196  RH  067%=      5-min Rain = 0
KCH1 160542Z 12003KT 26/20 A2997 RMK A01 T02610196  RH  067%=      5-min Rain = 0
KCH1 160543Z 12003KT 26/20 A2997 RMK A01 T02610196  RH  067%=      5-min Rain = 0
KCH1 160544Z 13003KT 26/20 A2997 RMK A01 T02600196  RH  067%=      5-min Rain = 0
KCH1 160545Z 13003KT 26/20 A2997 RMK A01 T02600195  RH  068%=      5-min Rain = 0
KCH1 160546Z 12003KT 26/20 A2997 RMK A01 T02600195  RH  068%=      5-min Rain = 0
KCH1 160547Z 12003KT 26/20 A2997 RMK A01 T02600196  RH  068%=      5-min Rain = 0
KCH1 160548Z 12003KT 26/20 A2997 RMK A01 T02600196  RH  068%=      5-min Rain = 0
KCH1 160549Z 12003KT 26/20 A2997 RMK A01 T02600196  RH  068%=      5-min Rain = 0
KCH1 160550Z 12003KT 26/20 A2997 RMK A01 T02600196  RH  068%=      5-min Rain = 0
KCH1 160551Z 13003KT 26/20 A2997 RMK A01 T02600195  RH  068%=      5-min Rain = 0
KCH1 160552Z 13003KT 26/20 A2997 RMK A01 T02600195  RH  068%=      5-min Rain = 0
KCH1 160553Z 13004KT 26/20 A2997 RMK A01 T02600195  RH  068%=      5-min Rain = 0
KCH1 160554Z 13004KT 26/20 A2997 RMK A01 T02600196  RH  067%=      5-min Rain = 0
KCH1 160555Z 13004KT 26/20 A2997 RMK A01 T02600195  RH  067%=      5-min Rain = 0
KCH1 160556Z 13004KT 26/20 A2997 RMK A01 T02600195  RH  067%=      5-min Rain = 0
KCH1 160557Z 13004KT 26/20 A2997 RMK A01 T02610196  RH  067%=      5-min Rain = 0
KCH1 160558Z 14004KT 26/20 A2997 RMK A01 T02610195  RH  067%=      5-min Rain = 0
KCH1 160559Z 14004KT 26/20 A2997 RMK A01 T02610196  RH  067%=      5-min Rain = 0
KCH1 160600Z 14004KT 26/20 A2997 RMK A01 T02600196  RH  068%=      5-min Rain = 0
KCH1 160601Z 14004KT 26/20 A2997 RMK A01 T02600196  RH  068%=      5-min Rain = 0
KCH1 160602Z 14003KT 26/20 A2997 RMK A01 T02600196  RH  068%=      5-min Rain = 0
KCH1 160603Z 15003KT 26/20 A2997 RMK A01 T02600196  RH  068%=      5-min Rain = 0
KCH1 160604Z 15003KT 26/20 A2997 RMK A01 T02600196  RH  068%=      5-min Rain = 0
KCH1 160605Z 15003KT 26/20 A2997 RMK A01 T02600196  RH  068%=      5-min Rain = 0
KCH1 160606Z 15003KT 26/20 A2997 RMK A01 T02600196  RH  068%=      5-min Rain = 0
KCH1 160607Z 14003KT 26/20 A2997 RMK A01 T02600196  RH  068%=      5-min Rain = 0
KCH1 160608Z 13003KT 26/20 A2997 RMK A01 T02600196  RH  068%=      5-min Rain = 0
KCH1 160609Z 14003KT 26/20 A2997 RMK A01 T02600196  RH  068%=      5-min Rain = 0
KCH1 160610Z 14003KT 26/20 A2997 RMK A01 T02590196  RH  068%=      5-min Rain = 0
KCH1 160611Z 14003KT 26/20 A2997 RMK A01 T02590196  RH  068%=      5-min Rain = 0
KCH1 160612Z 14003KT 26/20 A2997 RMK A01 T02600196  RH  068%=      5-min Rain = 0
KCH1 160613Z 13003KT 26/20 A2997 RMK A01 T02590196  RH  068%=      5-min Rain = 0
KCH1 160614Z 13003KT 26/20 A2997 RMK A01 T02590196  RH  068%=      5-min Rain = 0
KCH1 160615Z 13002KT 26/20 A2997 RMK A01 T02580196  RH  069%=      5-min Rain = 0
KCH1 160616Z 12003KT 26/20 A2997 RMK A01 T02580196  RH  069%=      5-min Rain = 0
KCH1 160617Z 12002KT 26/20 A2997 RMK A01 T02570196  RH  069%=      5-min Rain = 0
KCH1 160618Z 12002KT 26/20 A2997 RMK A01 T02550196  RH  069%=      5-min Rain = 0
KCH1 160619Z 12002KT 25/20 A2997 RMK A01 T02540196  RH  070%=      5-min Rain = 0
KCH1 160620Z 12002KT 25/20 A2997 RMK A01 T02540196  RH  070%=      5-min Rain = 0
KCH1 160621Z 11002KT 25/20 A2997 RMK A01 T02530196  RH  071%=      5-min Rain = 0
KCH1 160622Z 11002KT 25/20 A2997 RMK A01 T02520196  RH  071%=      5-min Rain = 0
KCH1 160623Z 11002KT 25/20 A2997 RMK A01 T02520196  RH  071%=      5-min Rain = 0
KCH1 160624Z 11002KT 25/20 A2997 RMK A01 T02520196  RH  071%=      5-min Rain = 0
KCH1 160625Z 11002KT 25/20 A2997 RMK A01 T02520196  RH  071%=      5-min Rain = 0
KCH1 160626Z 11002KT 25/20 A2997 RMK A01 T02520196  RH  071%=      5-min Rain = 0
KCH1 160627Z 11002KT 25/20 A2997 RMK A01 T02520196  RH  071%=      5-min Rain = 0
KCH1 160628Z 11002KT 25/20 A2997 RMK A01 T02520196  RH  071%=      5-min Rain = 0
KCH1 160629Z 11002KT 25/20 A2997 RMK A01 T02520196  RH  071%=      5-min Rain = 0
KCH1 160630Z 11002KT 25/20 A2997 RMK A01 T02520196  RH  071%=      5-min Rain = 0
KCH1 160631Z 11002KT 25/20 A2997 RMK A01 T02520196  RH  071%=      5-min Rain = 0
KCH1 160632Z 11002KT 25/20 A2997 RMK A01 T02520196  RH  071%=      5-min Rain = 0
KCH1 160633Z 11003KT 25/20 A2997 RMK A01 T02510196  RH  071%=      5-min Rain = 0
KCH1 160634Z 11003KT 25/20 A2997 RMK A01 T02510196  RH  072%=      5-min Rain = 0
KCH1 160635Z 11003KT 25/20 A2997 RMK A01 T02500196  RH  072%=      5-min Rain = 0
KCH1 160636Z 12003KT 25/20 A2997 RMK A01 T02500196  RH  072%=      5-min Rain = 0
KCH1 160637Z 12003KT 25/20 A2997 RMK A01 T02500196  RH  072%=      5-min Rain = 0
KCH1 160638Z 13003KT 25/20 A2997 RMK A01 T02500195  RH  072%=      5-min Rain = 0
KCH1 160639Z 13003KT 25/20 A2997 RMK A01 T02500196  RH  072%=      5-min Rain = 0
KCH1 160640Z 14003KT 25/20 A2997 RMK A01 T02510196  RH  072%=      5-min Rain = 0
KCH1 160641Z 14003KT 25/20 A2997 RMK A01 T02510195  RH  071%=      5-min Rain = 0
KCH1 160642Z 14003KT 25/20 A2997 RMK A01 T02510196  RH  071%=      5-min Rain = 0
KCH1 160643Z 14003KT 25/20 A2997 RMK A01 T02510196  RH  071%=      5-min Rain = 0
KCH1 160644Z 15003KT 25/20 A2997 RMK A01 T02510196  RH  071%=      5-min Rain = 0
KCH1 160645Z 15003KT 25/20 A2997 RMK A01 T02510196  RH  071%=      5-min Rain = 0
KCH1 160646Z 15003KT 25/20 A2997 RMK A01 T02510196  RH  071%=      5-min Rain = 0
KCH1 160647Z 15003KT 25/20 A2997 RMK A01 T02510196  RH  071%=      5-min Rain = 0
KCH1 160648Z 15003KT 25/20 A2997 RMK A01 T02510196  RH  071%=      5-min Rain = 0
KCH1 160649Z 15003KT 25/20 A2997 RMK A01 T02520196  RH  071%=      5-min Rain = 0
KCH1 160650Z 14003KT 25/20 A2997 RMK A01 T02520196  RH  071%=      5-min Rain = 0
KCH1 160651Z 15003KT 25/20 A2996 RMK A01 T02520197  RH  072%=      5-min Rain = 0
KCH1 160652Z 15003KT 25/20 A2996 RMK A01 T02510197  RH  072%=      5-min Rain = 0
KCH1 160653Z 15003KT 25/20 A2996 RMK A01 T02500197  RH  072%=      5-min Rain = 0
KCH1 160654Z 15003KT 25/20 A2996 RMK A01 T02500196  RH  072%=      5-min Rain = 0
KCH1 160655Z 15003KT 25/20 A2997 RMK A01 T02490196  RH  072%=      5-min Rain = 0
KCH1 160656Z 15003KT 25/20 A2997 RMK A01 T02500197  RH  072%=      5-min Rain = 0
KCH1 160657Z 15003KT 25/20 A2997 RMK A01 T02490197  RH  073%=      5-min Rain = 0
KCH1 160658Z 15003KT 25/20 A2997 RMK A01 T02490197  RH  073%=      5-min Rain = 0
KCH1 160659Z 15003KT 25/20 A2997 RMK A01 T02490197  RH  073%=      5-min Rain = 0
KCH1 160700Z 14003KT 25/20 A2997 RMK A01 T02480197  RH  073%=      5-min Rain = 0
KCH1 160701Z 14003KT 25/20 A2997 RMK A01 T02480196  RH  073%=      5-min Rain = 0
KCH1 160702Z 14003KT 25/20 A2997 RMK A01 T02470197  RH  073%=      5-min Rain = 0
KCH1 160703Z 13003KT 25/20 A2997 RMK A01 T02470197  RH  074%=      5-min Rain = 0
KCH1 160704Z 13003KT 25/20 A2997 RMK A01 T02460197  RH  074%=      5-min Rain = 0
KCH1 160705Z 13003KT 25/20 A2997 RMK A01 T02450197  RH  075%=      5-min Rain = 0
KCH1 160706Z 12002KT 24/20 A2997 RMK A01 T02430197  RH  075%=      5-min Rain = 0
KCH1 160707Z 12002KT 24/20 A2997 RMK A01 T02420196  RH  075%=      5-min Rain = 0
KCH1 160708Z 12002KT 24/20 A2997 RMK A01 T02420197  RH  076%=      5-min Rain = 0
KCH1 160709Z 12003KT 24/20 A2997 RMK A01 T02410196  RH  076%=      5-min Rain = 0
KCH1 160710Z 11003KT 24/20 A2997 RMK A01 T02410197  RH  076%=      5-min Rain = 0
KCH1 160711Z 11003KT 24/20 A2997 RMK A01 T02400197  RH  076%=      5-min Rain = 0
KCH1 160712Z 11003KT 24/20 A2997 RMK A01 T02390197  RH  077%=      5-min Rain = 0
KCH1 160713Z 11003KT 24/20 A2997 RMK A01 T02390197  RH  077%=      5-min Rain = 0
KCH1 160714Z 11003KT 24/20 A2997 RMK A01 T02380197  RH  078%=      5-min Rain = 0
KCH1 160715Z 12003KT 24/20 A2997 RMK A01 T02370197  RH  078%=      5-min Rain = 0
KCH1 160716Z 12003KT 24/20 A2997 RMK A01 T02360197  RH  079%=      5-min Rain = 0
KCH1 160717Z 12004KT 24/20 A2997 RMK A01 T02350197  RH  079%=      5-min Rain = 0
KCH1 160718Z 12004KT 24/20 A2997 RMK A01 T02350197  RH  079%=      5-min Rain = 0
KCH1 160719Z 12004KT 24/20 A2997 RMK A01 T02350197  RH  079%=      5-min Rain = 0
KCH1 160720Z 12004KT 24/20 A2997 RMK A01 T02350197  RH  079%=      5-min Rain = 0
KCH1 160721Z 13003KT 24/20 A2997 RMK A01 T02360197  RH  079%=      5-min Rain = 0
KCH1 160722Z 13004KT 24/20 A2997 RMK A01 T02370197  RH  078%=      5-min Rain = 0
KCH1 160723Z 13003KT 24/20 A2997 RMK A01 T02380197  RH  078%=      5-min Rain = 0
KCH1 160724Z 13003KT 24/20 A2996 RMK A01 T02390197  RH  077%=      5-min Rain = 0
KCH1 160725Z 13003KT 24/20 A2997 RMK A01 T02410197  RH  077%=      5-min Rain = 0
KCH1 160726Z 13003KT 24/20 A2997 RMK A01 T02420197  RH  076%=      5-min Rain = 0
KCH1 160727Z 13003KT 24/20 A2997 RMK A01 T02420197  RH  076%=      5-min Rain = 0
KCH1 160728Z 12003KT 24/20 A2997 RMK A01 T02430197  RH  076%=      5-min Rain = 0
KCH1 160729Z 12003KT 24/20 A2997 RMK A01 T02430197  RH  075%=      5-min Rain = 0
KCH1 160730Z 12003KT 24/20 A2997 RMK A01 T02430197  RH  075%=      5-min Rain = 0
KCH1 160731Z 12003KT 24/20 A2997 RMK A01 T02430197  RH  076%=      5-min Rain = 0
KCH1 160732Z 12003KT 24/20 A2997 RMK A01 T02420197  RH  076%=      5-min Rain = 0
KCH1 160733Z 12003KT 24/20 A2996 RMK A01 T02410197  RH  076%=      5-min Rain = 0
KCH1 160734Z 12003KT 24/20 A2996 RMK A01 T02410197  RH  077%=      5-min Rain = 0
KCH1 160735Z 12003KT 24/20 A2996 RMK A01 T02410197  RH  077%=      5-min Rain = 0
KCH1 160736Z 12003KT 24/20 A2996 RMK A01 T02410198  RH  077%=      5-min Rain = 0
KCH1 160737Z 12002KT 24/20 A2996 RMK A01 T02410197  RH  077%=      5-min Rain = 0
KCH1 160738Z 11002KT 24/20 A2996 RMK A01 T02410197  RH  077%=      5-min Rain = 0
KCH1 160739Z 12002KT 24/20 A2996 RMK A01 T02410197  RH  076%=      5-min Rain = 0
KCH1 160740Z 11003KT 24/20 A2996 RMK A01 T02410197  RH  076%=      5-min Rain = 0
KCH1 160741Z 11002KT 24/20 A2996 RMK A01 T02420197  RH  076%=      5-min Rain = 0
KCH1 160742Z 11003KT 24/20 A2996 RMK A01 T02420197  RH  076%=      5-min Rain = 0
KCH1 160743Z 11003KT 24/20 A2996 RMK A01 T02410197  RH  076%=      5-min Rain = 0
KCH1 160744Z 12002KT 24/20 A2996 RMK A01 T02410197  RH  076%=      5-min Rain = 0
KCH1 160745Z 12002KT 24/20 A2996 RMK A01 T02410197  RH  076%=      5-min Rain = 0
KCH1 160746Z 12002KT 24/20 A2996 RMK A01 T02410197  RH  076%=      5-min Rain = 0
KCH1 160747Z 12002KT 24/20 A2996 RMK A01 T02420197  RH  076%=      5-min Rain = 0
KCH1 160748Z 13002KT 24/20 A2996 RMK A01 T02420197  RH  076%=      5-min Rain = 0
KCH1 160749Z 12002KT 24/20 A2996 RMK A01 T02410197  RH  076%=      5-min Rain = 0
KCH1 160750Z 13002KT 24/20 A2996 RMK A01 T02420197  RH  076%=      5-min Rain = 0
KCH1 160751Z 13002KT 24/20 A2996 RMK A01 T02420197  RH  076%=      5-min Rain = 0
KCH1 160752Z 14002KT 24/20 A2996 RMK A01 T02420197  RH  076%=      5-min Rain = 0
KCH1 160753Z 14002KT 24/20 A2996 RMK A01 T02430197  RH  076%=      5-min Rain = 0
KCH1 160754Z 13002KT 24/20 A2997 RMK A01 T02430197  RH  075%=      5-min Rain = 0
KCH1 160755Z 13002KT 24/20 A2997 RMK A01 T02440197  RH  075%=      5-min Rain = 0
KCH1 160756Z 13002KT 24/20 A2997 RMK A01 T02440197  RH  075%=      5-min Rain = 0
KCH1 160757Z 14002KT 24/20 A2996 RMK A01 T02440197  RH  075%=      5-min Rain = 0
KCH1 160758Z 14002KT 24/20 A2996 RMK A01 T02440197  RH  075%=      5-min Rain = 0
KCH1 160759Z 13002KT 24/20 A2996 RMK A01 T02440197  RH  075%=      5-min Rain = 0
KCH1 160800Z 14002KT 24/20 A2996 RMK A01 T02440198  RH  075%=      5-min Rain = 0
KCH1 160801Z 14002KT 24/20 A2996 RMK A01 T02430197  RH  075%=      5-min Rain = 0
KCH1 160802Z 14002KT 24/20 A2996 RMK A01 T02430197  RH  075%=      5-min Rain = 0
KCH1 160803Z 14002KT 24/20 A2996 RMK A01 T02430197  RH  075%=      5-min Rain = 0
KCH1 160804Z 14002KT 24/20 A2996 RMK A01 T02430197  RH  076%=      5-min Rain = 0
KCH1 160805Z 13002KT 24/20 A2996 RMK A01 T02420197  RH  076%=      5-min Rain = 0
KCH1 160806Z 14002KT 24/20 A2996 RMK A01 T02420197  RH  076%=      5-min Rain = 0
KCH1 160807Z 14002KT 24/20 A2996 RMK A01 T02410198  RH  077%=      5-min Rain = 0
KCH1 160808Z 14002KT 24/20 A2996 RMK A01 T02390197  RH  077%=      5-min Rain = 0
KCH1 160809Z 15002KT 24/20 A2996 RMK A01 T02390197  RH  078%=      5-min Rain = 0
KCH1 160810Z 15002KT 24/20 A2996 RMK A01 T02380197  RH  078%=      5-min Rain = 0
KCH1 160811Z 15002KT 24/20 A2996 RMK A01 T02370197  RH  078%=      5-min Rain = 0
KCH1 160812Z 15002KT 24/20 A2996 RMK A01 T02370197  RH  078%=      5-min Rain = 0
KCH1 160813Z 15002KT 24/20 A2996 RMK A01 T02370197  RH  078%=      5-min Rain = 0
KCH1 160814Z 14002KT 24/20 A2996 RMK A01 T02370197  RH  078%=      5-min Rain = 0
KCH1 160815Z 14003KT 24/20 A2996 RMK A01 T02370197  RH  078%=      5-min Rain = 0
KCH1 160816Z 14002KT 24/20 A2996 RMK A01 T02370198  RH  079%=      5-min Rain = 0
KCH1 160817Z 14003KT 24/20 A2996 RMK A01 T02370198  RH  079%=      5-min Rain = 0
KCH1 160818Z 14002KT 24/20 A2996 RMK A01 T02360198  RH  079%=      5-min Rain = 0
KCH1 160819Z 14002KT 24/20 A2996 RMK A01 T02360198  RH  079%=      5-min Rain = 0
KCH1 160820Z 14002KT 24/20 A2996 RMK A01 T02360198  RH  079%=      5-min Rain = 0
KCH1 160821Z 14002KT 24/20 A2996 RMK A01 T02360198  RH  079%=      5-min Rain = 0
KCH1 160822Z 14002KT 24/20 A2996 RMK A01 T02350198  RH  079%=      5-min Rain = 0
KCH1 160823Z 14002KT 24/20 A2996 RMK A01 T02350197  RH  080%=      5-min Rain = 0
KCH1 160824Z 14002KT 24/20 A2996 RMK A01 T02350197  RH  080%=      5-min Rain = 0
KCH1 160825Z 15002KT 24/20 A2996 RMK A01 T02350197  RH  080%=      5-min Rain = 0
KCH1 160826Z 16002KT 24/20 A2996 RMK A01 T02350198  RH  080%=      5-min Rain = 0
KCH1 160827Z 15001KT 24/20 A2996 RMK A01 T02350198  RH  080%=      5-min Rain = 0
KCH1 160828Z 15002KT 24/20 A2996 RMK A01 T02350197  RH  080%=      5-min Rain = 0
KCH1 160829Z 15002KT 24/20 A2997 RMK A01 T02350198  RH  080%=      5-min Rain = 0
KCH1 160830Z 15001KT 24/20 A2997 RMK A01 T02360198  RH  079%=      5-min Rain = 0
KCH1 160831Z 15000KT 24/20 A2997 RMK A01 T02360198  RH  079%=      5-min Rain = 0
KCH1 160832Z 13001KT 24/20 A2997 RMK A01 T02360198  RH  079%=      5-min Rain = 0
KCH1 160833Z 13001KT 24/20 A2997 RMK A01 T02370198  RH  079%=      5-min Rain = 0
KCH1 160834Z 12001KT 24/20 A2997 RMK A01 T02370198  RH  079%=      5-min Rain = 0
KCH1 160835Z 12000KT 24/20 A2997 RMK A01 T02370198  RH  079%=      5-min Rain = 0
KCH1 160836Z 09000KT 24/20 A2997 RMK A01 T02380198  RH  078%=      5-min Rain = 0
KCH1 160837Z 00000KT 24/20 A2997 RMK A01 T02380198  RH  078%=      5-min Rain = 0
KCH1 160838Z 00000KT 24/20 A2996 RMK A01 T02380198  RH  078%=      5-min Rain = 0
KCH1 160839Z 15000KT 24/20 A2996 RMK A01 T02370198  RH  078%=      5-min Rain = 0
KCH1 160840Z 15000KT 24/20 A2997 RMK A01 T02380198  RH  078%=      5-min Rain = 0
KCH1 160841Z 12000KT 24/20 A2997 RMK A01 T02370198  RH  078%=      5-min Rain = 0
KCH1 160842Z 00000KT 24/20 A2997 RMK A01 T02380198  RH  078%=      5-min Rain = 0
KCH1 160843Z 10000KT 24/20 A2997 RMK A01 T02380198  RH  078%=      5-min Rain = 0
KCH1 160844Z 09000KT 24/20 A2997 RMK A01 T02390198  RH  078%=      5-min Rain = 0
KCH1 160845Z 00000KT 24/20 A2997 RMK A01 T02390197  RH  078%=      5-min Rain = 0
KCH1 160846Z 00000KT 24/20 A2997 RMK A01 T02390198  RH  078%=      5-min Rain = 0
KCH1 160847Z 00000KT 24/20 A2997 RMK A01 T02390198  RH  078%=      5-min Rain = 0
KCH1 160848Z 00000KT 24/20 A2996 RMK A01 T02390198  RH  078%=      5-min Rain = 0
KCH1 160849Z 00000KT 24/20 A2996 RMK A01 T02390198  RH  078%=      5-min Rain = 0
KCH1 160850Z 13000KT 24/20 A2996 RMK A01 T02380198  RH  078%=      5-min Rain = 0
KCH1 160851Z 00000KT 24/20 A2996 RMK A01 T02380198  RH  078%=      5-min Rain = 0
KCH1 160852Z 00000KT 24/20 A2996 RMK A01 T02380198  RH  078%=      5-min Rain = 0
KCH1 160853Z 00000KT 24/20 A2996 RMK A01 T02380198  RH  078%=      5-min Rain = 0
KCH1 160854Z 00000KT 24/20 A2996 RMK A01 T02380198  RH  078%=      5-min Rain = 0
KCH1 160855Z 00000KT 24/20 A2996 RMK A01 T02370198  RH  079%=      5-min Rain = 0
KCH1 160856Z 00000KT 24/20 A2996 RMK A01 T02370198  RH  079%=      5-min Rain = 0
KCH1 160857Z 00000KT 24/20 A2996 RMK A01 T02370198  RH  079%=      5-min Rain = 0
KCH1 160858Z 00000KT 24/20 A2996 RMK A01 T02370198  RH  079%=      5-min Rain = 0
KCH1 160859Z 00000KT 24/20 A2996 RMK A01 T02370198  RH  079%=      5-min Rain = 0
KCH1 160900Z 00000KT 24/20 A2996 RMK A01 T02360198  RH  079%=      5-min Rain = 0
KCH1 160901Z 00000KT 24/20 A2996 RMK A01 T02350198  RH  079%=      5-min Rain = 0
KCH1 160902Z 00000KT 24/20 A2996 RMK A01 T02350198  RH  080%=      5-min Rain = 0
KCH1 160903Z 00000KT 24/20 A2996 RMK A01 T02350198  RH  080%=      5-min Rain = 0
KCH1 160904Z 00000KT 24/20 A2996 RMK A01 T02350198  RH  080%=      5-min Rain = 0
KCH1 160905Z 00000KT 24/20 A2996 RMK A01 T02350198  RH  080%=      5-min Rain = 0
KCH1 160906Z 00000KT 24/20 A2996 RMK A01 T02350199  RH  080%=      5-min Rain = 0
KCH1 160907Z 00000KT 23/20 A2996 RMK A01 T02340198  RH  080%=      5-min Rain = 0
KCH1 160908Z 00000KT 23/20 A2996 RMK A01 T02340198  RH  080%=      5-min Rain = 0
KCH1 160909Z 00000KT 23/20 A2996 RMK A01 T02340198  RH  080%=      5-min Rain = 0
KCH1 160910Z 00000KT 23/20 A2996 RMK A01 T02340198  RH  080%=      5-min Rain = 0
KCH1 160911Z 00000KT 23/20 A2996 RMK A01 T02340198  RH  080%=      5-min Rain = 0
KCH1 160912Z 00000KT 23/20 A2996 RMK A01 T02330198  RH  080%=      5-min Rain = 0
KCH1 160913Z 00000KT 23/20 A2996 RMK A01 T02330197  RH  080%=      5-min Rain = 0
KCH1 160914Z 00000KT 23/20 A2996 RMK A01 T02320197  RH  081%=      5-min Rain = 0
KCH1 160915Z 00000KT 23/20 A2996 RMK A01 T02320197  RH  081%=      5-min Rain = 0
KCH1 160916Z 12001KT 23/20 A2997 RMK A01 T02320198  RH  081%=      5-min Rain = 0
KCH1 160917Z 12001KT 23/20 A2997 RMK A01 T02310197  RH  081%=      5-min Rain = 0
KCH1 160918Z 11001KT 23/20 A2996 RMK A01 T02310197  RH  082%=      5-min Rain = 0
KCH1 160919Z 11001KT 23/20 A2996 RMK A01 T02300197  RH  082%=      5-min Rain = 0
KCH1 160920Z 10001KT 23/20 A2997 RMK A01 T02280197  RH  083%=      5-min Rain = 0
KCH1 160921Z 09001KT 23/20 A2997 RMK A01 T02270197  RH  083%=      5-min Rain = 0
KCH1 160922Z 09001KT 23/20 A2997 RMK A01 T02260197  RH  084%=      5-min Rain = 0
KCH1 160923Z 09001KT 23/20 A2997 RMK A01 T02250197  RH  084%=      5-min Rain = 0
KCH1 160924Z 10001KT 23/20 A2997 RMK A01 T02250197  RH  084%=      5-min Rain = 0
KCH1 160925Z 10002KT 22/20 A2997 RMK A01 T02240197  RH  084%=      5-min Rain = 0
KCH1 160926Z 10002KT 22/20 A2997 RMK A01 T02230196  RH  085%=      5-min Rain = 0
KCH1 160927Z 10002KT 22/20 A2997 RMK A01 T02210196  RH  086%=      5-min Rain = 0
KCH1 160928Z 10002KT 22/20 A2997 RMK A01 T02200196  RH  086%=      5-min Rain = 0
KCH1 160929Z 10002KT 22/20 A2997 RMK A01 T02190196  RH  087%=      5-min Rain = 0
KCH1 160930Z 10002KT 22/20 A2997 RMK A01 T02180196  RH  087%=      5-min Rain = 0
KCH1 160931Z 09002KT 22/20 A2997 RMK A01 T02180196  RH  087%=      5-min Rain = 0
KCH1 160932Z 09002KT 22/20 A2997 RMK A01 T02180196  RH  088%=      5-min Rain = 0
KCH1 160933Z 09002KT 22/20 A2997 RMK A01 T02180196  RH  087%=      5-min Rain = 0
KCH1 160934Z 08002KT 22/20 A2997 RMK A01 T02180196  RH  087%=      5-min Rain = 0
KCH1 160935Z 09002KT 22/20 A2997 RMK A01 T02180196  RH  087%=      5-min Rain = 0
KCH1 160936Z 08002KT 22/20 A2997 RMK A01 T02190196  RH  087%=      5-min Rain = 0
KCH1 160937Z 08002KT 22/20 A2997 RMK A01 T02190196  RH  087%=      5-min Rain = 0
KCH1 160938Z 08002KT 22/20 A2997 RMK A01 T02190196  RH  087%=      5-min Rain = 0
KCH1 160939Z 09002KT 22/20 A2997 RMK A01 T02190196  RH  087%=      5-min Rain = 0
KCH1 160940Z 10002KT 22/20 A2997 RMK A01 T02190197  RH  087%=      5-min Rain = 0
KCH1 160941Z 08001KT 22/20 A2996 RMK A01 T02190197  RH  087%=      5-min Rain = 0
KCH1 160942Z 09001KT 22/20 A2996 RMK A01 T02200197  RH  087%=      5-min Rain = 0
KCH1 160943Z 08002KT 22/20 A2996 RMK A01 T02200197  RH  087%=      5-min Rain = 0
KCH1 160944Z 09002KT 22/20 A2996 RMK A01 T02200197  RH  087%=      5-min Rain = 0
KCH1 160945Z 08002KT 22/20 A2996 RMK A01 T02210197  RH  086%=      5-min Rain = 0
KCH1 160946Z 09001KT 22/20 A2996 RMK A01 T02210197  RH  086%=      5-min Rain = 0
KCH1 160947Z 08002KT 22/20 A2996 RMK A01 T02210197  RH  086%=      5-min Rain = 0
KCH1 160948Z 09002KT 22/20 A2996 RMK A01 T02200197  RH  086%=      5-min Rain = 0
KCH1 160949Z 10002KT 22/20 A2996 RMK A01 T02200197  RH  086%=      5-min Rain = 0
KCH1 160950Z 08002KT 22/20 A2996 RMK A01 T02210197  RH  086%=      5-min Rain = 0
KCH1 160951Z 07002KT 22/20 A2996 RMK A01 T02200196  RH  086%=      5-min Rain = 0
KCH1 160952Z 07003KT 22/20 A2996 RMK A01 T02210197  RH  086%=      5-min Rain = 0
KCH1 160953Z 07003KT 22/20 A2996 RMK A01 T02200196  RH  086%=      5-min Rain = 0
KCH1 160954Z 07003KT 22/20 A2996 RMK A01 T02200196  RH  086%=      5-min Rain = 0
KCH1 160955Z 07003KT 22/20 A2996 RMK A01 T02200196  RH  086%=      5-min Rain = 0
KCH1 160956Z 08003KT 22/20 A2996 RMK A01 T02190196  RH  087%=      5-min Rain = 0
KCH1 160957Z 08003KT 22/20 A2996 RMK A01 T02190197  RH  087%=      5-min Rain = 0
KCH1 160958Z 09003KT 22/20 A2997 RMK A01 T02190196  RH  087%=      5-min Rain = 0
KCH1 160959Z 08003KT 22/20 A2997 RMK A01 T02190196  RH  087%=      5-min Rain = 0
KCH1 161000Z 08003KT 22/20 A2997 RMK A01 T02190196  RH  087%=      5-min Rain = 0
KCH1 161001Z 08003KT 22/20 A2997 RMK A01 T02190196  RH  087%=      5-min Rain = 0
KCH1 161002Z 08003KT 22/20 A2997 RMK A01 T02190197  RH  087%=      5-min Rain = 0
KCH1 161003Z 08003KT 22/20 A2997 RMK A01 T02190197  RH  087%=      5-min Rain = 0
KCH1 161004Z 08003KT 22/20 A2997 RMK A01 T02190196  RH  087%=      5-min Rain = 0
KCH1 161005Z 08003KT 22/20 A2996 RMK A01 T02200197  RH  087%=      5-min Rain = 0
KCH1 161006Z 08003KT 22/20 A2996 RMK A01 T02200197  RH  087%=      5-min Rain = 0
KCH1 161007Z 08003KT 22/20 A2996 RMK A01 T02210197  RH  086%=      5-min Rain = 0
KCH1 161008Z 08003KT 22/20 A2996 RMK A01 T02210197  RH  086%=      5-min Rain = 0
KCH1 161009Z 09003KT 22/20 A2997 RMK A01 T02200196  RH  086%=      5-min Rain = 0
KCH1 161010Z 09003KT 22/20 A2997 RMK A01 T02200197  RH  086%=      5-min Rain = 0
KCH1 161011Z 09003KT 22/20 A2997 RMK A01 T02200197  RH  087%=      5-min Rain = 0
KCH1 161012Z 09003KT 22/20 A2997 RMK A01 T02200197  RH  087%=      5-min Rain = 0
KCH1 161013Z 08002KT 22/20 A2997 RMK A01 T02200197  RH  087%=      5-min Rain = 0
KCH1 161014Z 07002KT 22/20 A2997 RMK A01 T02200197  RH  087%=      5-min Rain = 0
KCH1 161015Z 08002KT 22/20 A2997 RMK A01 T02200197  RH  087%=      5-min Rain = 0
KCH1 161016Z 07002KT 22/20 A2997 RMK A01 T02190196  RH  087%=      5-min Rain = 0
KCH1 161017Z 07002KT 22/20 A2997 RMK A01 T02200197  RH  087%=      5-min Rain = 0
KCH1 161018Z 07003KT 22/20 A2997 RMK A01 T02210197  RH  086%=      5-min Rain = 0
KCH1 161019Z 07003KT 22/20 A2997 RMK A01 T02210197  RH  086%=      5-min Rain = 0
KCH1 161020Z 07003KT 22/20 A2997 RMK A01 T02220197  RH  086%=      5-min Rain = 0
KCH1 161021Z 07003KT 22/20 A2997 RMK A01 T02230197  RH  085%=      5-min Rain = 0
KCH1 161022Z 06004KT 22/20 A2997 RMK A01 T02230197  RH  085%=      5-min Rain = 0
KCH1 161023Z 07004KT 22/20 A2997 RMK A01 T02230197  RH  085%=      5-min Rain = 0
KCH1 161024Z 07004KT 22/20 A2997 RMK A01 T02220197  RH  086%=      5-min Rain = 0
KCH1 161025Z 07003KT 22/20 A2997 RMK A01 T02210197  RH  086%=      5-min Rain = 0
KCH1 161026Z 07003KT 22/20 A2997 RMK A01 T02210196  RH  086%=      5-min Rain = 0
KCH1 161027Z 08003KT 22/20 A2997 RMK A01 T02200196  RH  086%=      5-min Rain = 0
KCH1 161028Z 08003KT 22/20 A2997 RMK A01 T02200197  RH  087%=      5-min Rain = 0
KCH1 161029Z 08003KT 22/20 A2997 RMK A01 T02200196  RH  087%=      5-min Rain = 0
KCH1 161030Z 08003KT 22/20 A2997 RMK A01 T02200197  RH  087%=      5-min Rain = 0
KCH1 161031Z 08003KT 22/20 A2997 RMK A01 T02200196  RH  087%=      5-min Rain = 0
KCH1 161032Z 08002KT 22/20 A2997 RMK A01 T02190196  RH  087%=      5-min Rain = 0
KCH1 161033Z 08002KT 22/20 A2997 RMK A01 T02190197  RH  087%=      5-min Rain = 0
KCH1 161034Z 09002KT 22/20 A2997 RMK A01 T02190196  RH  087%=      5-min Rain = 0
KCH1 161035Z 09002KT 22/20 A2997 RMK A01 T02200197  RH  087%=      5-min Rain = 0
KCH1 161036Z 09002KT 22/20 A2997 RMK A01 T02210197  RH  086%=      5-min Rain = 0
KCH1 161037Z 09002KT 22/20 A2997 RMK A01 T02220197  RH  086%=      5-min Rain = 0
KCH1 161038Z 09002KT 22/20 A2997 RMK A01 T02230197  RH  086%=      5-min Rain = 0
KCH1 161039Z 09002KT 22/20 A2997 RMK A01 T02230197  RH  085%=      5-min Rain = 0
KCH1 161040Z 10003KT 22/20 A2997 RMK A01 T02230197  RH  085%=      5-min Rain = 0
KCH1 161041Z 09003KT 22/20 A2998 RMK A01 T02230197  RH  085%=      5-min Rain = 0
KCH1 161042Z 10003KT 22/20 A2998 RMK A01 T02220197  RH  085%=      5-min Rain = 0
KCH1 161043Z 09003KT 22/20 A2998 RMK A01 T02210196  RH  086%=      5-min Rain = 0
KCH1 161044Z 09003KT 22/20 A2998 RMK A01 T02200196  RH  086%=      5-min Rain = 0
KCH1 161045Z 09003KT 22/20 A2998 RMK A01 T02190196  RH  087%=      5-min Rain = 0
KCH1 161046Z 09003KT 22/20 A2998 RMK A01 T02170195  RH  087%=      5-min Rain = 0
KCH1 161047Z 09003KT 22/20 A2998 RMK A01 T02160195  RH  088%=      5-min Rain = 0
KCH1 161048Z 09003KT 22/20 A2998 RMK A01 T02150195  RH  088%=      5-min Rain = 0
KCH1 161049Z 09003KT 22/20 A2998 RMK A01 T02150195  RH  089%=      5-min Rain = 0
KCH1 161050Z 09003KT 22/20 A2998 RMK A01 T02150196  RH  089%=      5-min Rain = 0
KCH1 161051Z 09003KT 21/20 A2998 RMK A01 T02140195  RH  089%=      5-min Rain = 0
KCH1 161052Z 09003KT 22/20 A2998 RMK A01 T02150196  RH  089%=      5-min Rain = 0
KCH1 161053Z 09003KT 21/20 A2998 RMK A01 T02140196  RH  089%=      5-min Rain = 0
KCH1 161054Z 09003KT 22/20 A2998 RMK A01 T02150196  RH  089%=      5-min Rain = 0
KCH1 161055Z 09003KT 22/20 A2998 RMK A01 T02150196  RH  089%=      5-min Rain = 0
KCH1 161056Z 09003KT 22/20 A2998 RMK A01 T02160196  RH  089%=      5-min Rain = 0
KCH1 161057Z 09003KT 22/20 A2998 RMK A01 T02160196  RH  089%=      5-min Rain = 0
KCH1 161058Z 10003KT 22/20 A2998 RMK A01 T02160196  RH  088%=      5-min Rain = 0
KCH1 161059Z 10003KT 22/20 A2998 RMK A01 T02170197  RH  088%=      5-min Rain = 0
KCH1 161100Z 10003KT 22/20 A2999 RMK A01 T02170197  RH  088%=      5-min Rain = 0
KCH1 161101Z 10002KT 22/20 A2999 RMK A01 T02170197  RH  088%=      5-min Rain = 0
KCH1 161102Z 09002KT 22/20 A2999 RMK A01 T02180197  RH  088%=      5-min Rain = 0
KCH1 161103Z 09002KT 22/20 A2999 RMK A01 T02180197  RH  088%=      5-min Rain = 0
KCH1 161104Z 09002KT 22/20 A2999 RMK A01 T02180196  RH  088%=      5-min Rain = 0
KCH1 161105Z 09002KT 22/20 A2999 RMK A01 T02170196  RH  088%=      5-min Rain = 0
KCH1 161106Z 09002KT 22/20 A2999 RMK A01 T02170197  RH  088%=      5-min Rain = 0
KCH1 161107Z 09002KT 22/20 A2999 RMK A01 T02180197  RH  088%=      5-min Rain = 0
KCH1 161108Z 09002KT 22/20 A2999 RMK A01 T02180197  RH  088%=      5-min Rain = 0
KCH1 161109Z 09002KT 22/20 A2999 RMK A01 T02190197  RH  087%=      5-min Rain = 0
KCH1 161110Z 09002KT 22/20 A2999 RMK A01 T02190197  RH  087%=      5-min Rain = 0
KCH1 161111Z 09002KT 22/20 A2999 RMK A01 T02200197  RH  087%=      5-min Rain = 0
KCH1 161112Z 10002KT 22/20 A2999 RMK A01 T02200197  RH  087%=      5-min Rain = 0
KCH1 161113Z 10002KT 22/20 A2999 RMK A01 T02200197  RH  087%=      5-min Rain = 0
KCH1 161114Z 10002KT 22/20 A2999 RMK A01 T02200197  RH  087%=      5-min Rain = 0
KCH1 161115Z 09002KT 22/20 A2999 RMK A01 T02200197  RH  087%=      5-min Rain = 0
KCH1 161116Z 09002KT 22/20 A2999 RMK A01 T02190196  RH  087%=      5-min Rain = 0
KCH1 161117Z 10002KT 22/20 A2999 RMK A01 T02190197  RH  087%=      5-min Rain = 0
KCH1 161118Z 10003KT 22/20 A2999 RMK A01 T02190197  RH  087%=      5-min Rain = 0
KCH1 161119Z 11002KT 22/20 A2999 RMK A01 T02190197  RH  087%=      5-min Rain = 0
KCH1 161120Z 10002KT 22/20 A2999 RMK A01 T02180197  RH  087%=      5-min Rain = 0
KCH1 161121Z 11002KT 22/20 A2999 RMK A01 T02180197  RH  088%=      5-min Rain = 0
KCH1 161122Z 10002KT 22/20 A2999 RMK A01 T02190197  RH  088%=      5-min Rain = 0
KCH1 161123Z 11002KT 22/20 A2999 RMK A01 T02180197  RH  088%=      5-min Rain = 0
KCH1 161124Z 11002KT 22/20 A2999 RMK A01 T02190198  RH  088%=      5-min Rain = 0
KCH1 161125Z 11002KT 22/20 A2999 RMK A01 T02200198  RH  087%=      5-min Rain = 0
KCH1 161126Z 11002KT 22/20 A2999 RMK A01 T02210197  RH  086%=      5-min Rain = 0
KCH1 161127Z 11001KT 22/20 A2999 RMK A01 T02210198  RH  086%=      5-min Rain = 0
KCH1 161128Z 11001KT 22/20 A2999 RMK A01 T02220198  RH  086%=      5-min Rain = 0
KCH1 161129Z 10002KT 22/20 A2999 RMK A01 T02220198  RH  086%=      5-min Rain = 0
KCH1 161130Z 11002KT 22/20 A2999 RMK A01 T02220197  RH  086%=      5-min Rain = 0
KCH1 161131Z 11002KT 22/20 A2999 RMK A01 T02220197  RH  086%=      5-min Rain = 0
KCH1 161132Z 10002KT 22/20 A2999 RMK A01 T02220198  RH  086%=      5-min Rain = 0
KCH1 161133Z 10002KT 22/20 A2999 RMK A01 T02220197  RH  086%=      5-min Rain = 0
KCH1 161134Z 10002KT 22/20 A2999 RMK A01 T02210197  RH  086%=      5-min Rain = 0
KCH1 161135Z 11002KT 22/20 A2999 RMK A01 T02210197  RH  086%=      5-min Rain = 0
KCH1 161136Z 12004KT 22/20 A30 RMK A01 T02200197  RH  086%=      5-min Rain = 0
KCH1 161137Z 11003KT 22/20 A30 RMK A01 T02200197  RH  086%=      5-min Rain = 0
KCH1 161138Z 10002KT 22/20 A30 RMK A01 T02200195  RH  086%=      5-min Rain = 0
KCH1 161139Z 10003KT 22/20 A30 RMK A01 T02180196  RH  087%=      5-min Rain = 0
KCH1 161140Z 11003KT 22/20 A30 RMK A01 T02170196  RH  088%=      5-min Rain = 0
KCH1 161141Z 12003KT 22/20 A30 RMK A01 T02160196  RH  088%=      5-min Rain = 0
KCH1 161142Z 13002KT 22/20 A30 RMK A01 T02170197  RH  088%=      5-min Rain = 0
KCH1 161143Z 13003KT 22/20 A30 RMK A01 T02180196  RH  087%=      5-min Rain = 0
KCH1 161144Z 13003KT 22/20 A30 RMK A01 T02180196  RH  087%=      5-min Rain = 0
KCH1 161145Z 13002KT 22/20 A30 RMK A01 T02180196  RH  088%=      5-min Rain = 0
KCH1 161146Z 13003KT 22/20 A30 RMK A01 T02170196  RH  088%=      5-min Rain = 0
KCH1 161147Z 13003KT 22/20 A30 RMK A01 T02170197  RH  088%=      5-min Rain = 0
KCH1 161148Z 12002KT 22/20 A30 RMK A01 T02180197  RH  088%=      5-min Rain = 0
KCH1 161149Z 13003KT 22/20 A30 RMK A01 T02180197  RH  087%=      5-min Rain = 0
KCH1 161150Z 12002KT 22/20 A30 RMK A01 T02180196  RH  087%=      5-min Rain = 0
KCH1 161151Z 11002KT 22/20 A30 RMK A01 T02180197  RH  087%=      5-min Rain = 0
KCH1 161152Z 12002KT 22/20 A30 RMK A01 T02190196  RH  087%=      5-min Rain = 0
KCH1 161153Z 12002KT 22/20 A30 RMK A01 T02190196  RH  087%=      5-min Rain = 0
KCH1 161154Z 12002KT 22/20 A30 RMK A01 T02190196  RH  087%=      5-min Rain = 0
KCH1 161155Z 11002KT 22/20 A30 RMK A01 T02180196  RH  087%=      5-min Rain = 0
KCH1 161156Z 12002KT 22/20 A30 RMK A01 T02180196  RH  087%=      5-min Rain = 0
KCH1 161157Z 13001KT 22/20 A3001 RMK A01 T02180196  RH  088%=      5-min Rain = 0
KCH1 161158Z 10002KT 22/20 A30 RMK A01 T02170196  RH  088%=      5-min Rain = 0
KCH1 161159Z 10002KT 22/20 A30 RMK A01 T02170196  RH  088%=      5-min Rain = 0
KCH1 161200Z 11002KT 22/20 A3001 RMK A01 T02170196  RH  088%=      5-min Rain = 0
KCH1 161201Z 11002KT 22/20 A3001 RMK A01 T02170196  RH  088%=      5-min Rain = 0
KCH1 161202Z 11002KT 22/20 A3001 RMK A01 T02170196  RH  088%=      5-min Rain = 0
KCH1 161203Z 10002KT 22/20 A3001 RMK A01 T02170196  RH  088%=      5-min Rain = 0
KCH1 161204Z 10002KT 22/20 A3001 RMK A01 T02180197  RH  088%=      5-min Rain = 0
KCH1 161205Z 10002KT 22/20 A3001 RMK A01 T02180197  RH  087%=      5-min Rain = 0
KCH1 161206Z 11003KT 22/20 A3001 RMK A01 T02190197  RH  087%=      5-min Rain = 0
KCH1 161207Z 12003KT 22/20 A3001 RMK A01 T02190197  RH  087%=      5-min Rain = 0
KCH1 161208Z 12003KT 22/20 A3001 RMK A01 T02200197  RH  087%=      5-min Rain = 0
KCH1 161209Z 11002KT 22/20 A3001 RMK A01 T02210197  RH  086%=      5-min Rain = 0
KCH1 161210Z 11002KT 22/20 A3001 RMK A01 T02220198  RH  086%=      5-min Rain = 0
KCH1 161211Z 11002KT 22/20 A3001 RMK A01 T02220198  RH  086%=      5-min Rain = 0
KCH1 161212Z 11002KT 22/20 A3001 RMK A01 T02230198  RH  086%=      5-min Rain = 0
KCH1 161213Z 12003KT 22/20 A3001 RMK A01 T02230198  RH  086%=      5-min Rain = 0
KCH1 161214Z 12003KT 22/20 A3001 RMK A01 T02240198  RH  085%=      5-min Rain = 0
KCH1 161215Z 12003KT 22/20 A3001 RMK A01 T02240198  RH  085%=      5-min Rain = 0
KCH1 161216Z 12003KT 22/20 A3001 RMK A01 T02240198  RH  085%=      5-min Rain = 0
KCH1 161217Z 13003KT 23/20 A3001 RMK A01 T02250198  RH  085%=      5-min Rain = 0
KCH1 161218Z 12002KT 23/20 A3001 RMK A01 T02250198  RH  085%=      5-min Rain = 0
KCH1 161219Z 11003KT 23/20 A3001 RMK A01 T02250198  RH  085%=      5-min Rain = 0
KCH1 161220Z 12003KT 23/20 A3001 RMK A01 T02260199  RH  085%=      5-min Rain = 0
KCH1 161221Z 12003KT 23/20 A3001 RMK A01 T02260200  RH  085%=      5-min Rain = 0
KCH1 161222Z 12003KT 23/20 A3001 RMK A01 T02260199  RH  085%=      5-min Rain = 0
KCH1 161223Z 12003KT 23/20 A3001 RMK A01 T02270200  RH  085%=      5-min Rain = 0
KCH1 161224Z 13003KT 23/20 A3001 RMK A01 T02270201  RH  085%=      5-min Rain = 0
KCH1 161225Z 13003KT 23/20 A3001 RMK A01 T02270201  RH  085%=      5-min Rain = 0
KCH1 161226Z 13003KT 23/20 A3001 RMK A01 T02280201  RH  084%=      5-min Rain = 0
KCH1 161227Z 13002KT 23/20 A3001 RMK A01 T02290200  RH  084%=      5-min Rain = 0
KCH1 161228Z 13003KT 23/20 A3001 RMK A01 T02300200  RH  083%=      5-min Rain = 0
KCH1 161229Z 14003KT 23/20 A3001 RMK A01 T02300200  RH  083%=      5-min Rain = 0
KCH1 161230Z 14003KT 23/20 A3001 RMK A01 T02310200  RH  083%=      5-min Rain = 0
KCH1 161231Z 14003KT 23/20 A3001 RMK A01 T02310201  RH  083%=      5-min Rain = 0
KCH1 161232Z 14003KT 23/20 A3001 RMK A01 T02310202  RH  083%=      5-min Rain = 0
KCH1 161233Z 14003KT 23/20 A3001 RMK A01 T02320202  RH  083%=      5-min Rain = 0
KCH1 161234Z 15003KT 23/20 A3001 RMK A01 T02320202  RH  083%=      5-min Rain = 0
KCH1 161235Z 14003KT 23/20 A3001 RMK A01 T02320203  RH  083%=      5-min Rain = 0
KCH1 161236Z 14003KT 23/20 A3001 RMK A01 T02330204  RH  084%=      5-min Rain = 0
KCH1 161237Z 15003KT 23/20 A3001 RMK A01 T02330204  RH  083%=      5-min Rain = 0
KCH1 161238Z 15003KT 23/21 A3001 RMK A01 T02340205  RH  084%=      5-min Rain = 0
KCH1 161239Z 15004KT 23/20 A3001 RMK A01 T02340204  RH  083%=      5-min Rain = 0
KCH1 161240Z 16004KT 24/20 A3001 RMK A01 T02350204  RH  083%=      5-min Rain = 0
KCH1 161241Z 15003KT 24/21 A3001 RMK A01 T02350206  RH  083%=      5-min Rain = 0
KCH1 161242Z 15004KT 24/21 A3001 RMK A01 T02360206  RH  083%=      5-min Rain = 0
KCH1 161243Z 15004KT 24/21 A3001 RMK A01 T02370205  RH  082%=      5-min Rain = 0
KCH1 161244Z 15004KT 24/21 A3001 RMK A01 T02380205  RH  082%=      5-min Rain = 0
KCH1 161245Z 15003KT 24/21 A3001 RMK A01 T02380206  RH  082%=      5-min Rain = 0
KCH1 161246Z 15004KT 24/21 A3001 RMK A01 T02390206  RH  082%=      5-min Rain = 0
KCH1 161247Z 15004KT 24/21 A3001 RMK A01 T02390206  RH  082%=      5-min Rain = 0
KCH1 161248Z 15004KT 24/21 A3001 RMK A01 T02400206  RH  081%=      5-min Rain = 0
KCH1 161249Z 16004KT 24/21 A3001 RMK A01 T02410206  RH  081%=      5-min Rain = 0
KCH1 161250Z 15005KT 24/21 A3001 RMK A01 T02420206  RH  080%=      5-min Rain = 0
KCH1 161251Z 15005KT 24/21 A3001 RMK A01 T02420206  RH  080%=      5-min Rain = 0
KCH1 161252Z 15004KT 24/21 A3001 RMK A01 T02430206  RH  080%=      5-min Rain = 0
KCH1 161253Z 15004KT 24/21 A3001 RMK A01 T02440208  RH  080%=      5-min Rain = 0
KCH1 161254Z 15004KT 24/21 A3001 RMK A01 T02440207  RH  080%=      5-min Rain = 0
KCH1 161255Z 15004KT 25/21 A3001 RMK A01 T02450207  RH  079%=      5-min Rain = 0
KCH1 161256Z 15004KT 25/21 A3001 RMK A01 T02450207  RH  079%=      5-min Rain = 0
KCH1 161257Z 15004KT 25/21 A3002 RMK A01 T02460207  RH  079%=      5-min Rain = 0
KCH1 161258Z 15005KT 25/21 A3002 RMK A01 T02460208  RH  079%=      5-min Rain = 0
KCH1 161259Z 15004KT 25/21 A3002 RMK A01 T02470208  RH  079%=      5-min Rain = 0
KCH1 161300Z 14004KT 25/21 A3002 RMK A01 T02470209  RH  079%=      5-min Rain = 0
KCH1 161301Z 16005KT 25/21 A3002 RMK A01 T02480207  RH  078%=      5-min Rain = 0
KCH1 161302Z 15005KT 25/21 A3002 RMK A01 T02480207  RH  078%=      5-min Rain = 0
KCH1 161303Z 16004KT 25/21 A3002 RMK A01 T02480207  RH  078%=      5-min Rain = 0
KCH1 161304Z 16005KT 25/21 A3002 RMK A01 T02480209  RH  078%=      5-min Rain = 0
KCH1 161305Z 16004KT 25/21 A3002 RMK A01 T02490208  RH  078%=      5-min Rain = 0
KCH1 161306Z 15004KT 25/21 A3002 RMK A01 T02490208  RH  078%=      5-min Rain = 0
KCH1 161307Z 16003KT 25/21 A3002 RMK A01 T02490209  RH  078%=      5-min Rain = 0
KCH1 161308Z 15003KT 25/21 A3002 RMK A01 T02510210  RH  078%=      5-min Rain = 0
KCH1 161309Z 16004KT 25/21 A3002 RMK A01 T02510209  RH  077%=      5-min Rain = 0
KCH1 161310Z 16005KT 25/21 A3002 RMK A01 T02510209  RH  077%=      5-min Rain = 0
KCH1 161311Z 16005KT 25/21 A3002 RMK A01 T02520209  RH  077%=      5-min Rain = 0
KCH1 161312Z 16004KT 25/21 A3002 RMK A01 T02520209  RH  077%=      5-min Rain = 0
KCH1 161313Z 16003KT 25/21 A3002 RMK A01 T02520209  RH  077%=      5-min Rain = 0
KCH1 161314Z 16004KT 25/21 A3002 RMK A01 T02520210  RH  077%=      5-min Rain = 0
KCH1 161315Z 14004KT 25/21 A3002 RMK A01 T02530211  RH  078%=      5-min Rain = 0
KCH1 161316Z 16003KT 25/21 A3002 RMK A01 T02540211  RH  077%=      5-min Rain = 0
KCH1 161317Z 16005KT 26/21 A3002 RMK A01 T02550211  RH  076%=      5-min Rain = 0
KCH1 161318Z 16004KT 26/21 A3002 RMK A01 T02550210  RH  076%=      5-min Rain = 0
KCH1 161319Z 16005KT 26/21 A3002 RMK A01 T02550210  RH  076%=      5-min Rain = 0
KCH1 161320Z 16005KT 26/21 A3002 RMK A01 T02550211  RH  076%=      5-min Rain = 0
KCH1 161321Z 16005KT 26/21 A3002 RMK A01 T02550210  RH  076%=      5-min Rain = 0
KCH1 161322Z 17005KT 26/21 A3002 RMK A01 T02550210  RH  076%=      5-min Rain = 0
KCH1 161323Z 16005KT 26/21 A3002 RMK A01 T02550211  RH  077%=      5-min Rain = 0
KCH1 161324Z 16004KT 26/21 A3002 RMK A01 T02560211  RH  076%=      5-min Rain = 0
KCH1 161325Z 16005KT 26/21 A3002 RMK A01 T02560211  RH  076%=      5-min Rain = 0
KCH1 161326Z 16007KT 26/21 A3002 RMK A01 T02560211  RH  076%=      5-min Rain = 0
KCH1 161327Z 16005KT 26/21 A3002 RMK A01 T02560211  RH  076%=      5-min Rain = 0
KCH1 161328Z 17005KT 26/21 A3002 RMK A01 T02560212  RH  076%=      5-min Rain = 0
KCH1 161329Z 16004KT 26/21 A3002 RMK A01 T02560213  RH  077%=      5-min Rain = 0
KCH1 161330Z 17004KT 26/21 A3002 RMK A01 T02570212  RH  076%=      5-min Rain = 0
KCH1 161331Z 16005KT 26/21 A3002 RMK A01 T02580214  RH  077%=      5-min Rain = 0
KCH1 161332Z 17005KT 26/21 A3002 RMK A01 T02590214  RH  076%=      5-min Rain = 0
KCH1 161333Z 17006KT 26/21 A3002 RMK A01 T02590214  RH  076%=      5-min Rain = 0
KCH1 161334Z 16005KT 26/21 A3002 RMK A01 T02590213  RH  076%=      5-min Rain = 0
KCH1 161335Z 15006KT 26/21 A3002 RMK A01 T02590214  RH  076%=      5-min Rain = 0
KCH1 161336Z 16006KT 26/21 A3002 RMK A01 T02590214  RH  076%=      5-min Rain = 0
KCH1 161337Z 17006KT 26/21 A3002 RMK A01 T02600213  RH  076%=      5-min Rain = 0
KCH1 161338Z 17005KT 26/21 A3002 RMK A01 T02600214  RH  076%=      5-min Rain = 0
KCH1 161339Z 17004KT 26/22 A3002 RMK A01 T02600215  RH  076%=      5-min Rain = 0
KCH1 161340Z 16006KT 26/21 A3002 RMK A01 T02600214  RH  076%=      5-min Rain = 0
KCH1 161341Z 16004KT 26/22 A3002 RMK A01 T02610216  RH  076%=      5-min Rain = 0
KCH1 161342Z 15005KT 26/22 A3002 RMK A01 T02620216  RH  076%=      5-min Rain = 0
KCH1 161343Z 16005KT 26/22 A3002 RMK A01 T02630216  RH  075%=      5-min Rain = 0
KCH1 161344Z 15005KT 26/22 A3002 RMK A01 T02640217  RH  075%=      5-min Rain = 0
KCH1 161345Z 16004KT 27/22 A3002 RMK A01 T02660218  RH  075%=      5-min Rain = 0
KCH1 161346Z 16006KT 27/22 A3002 RMK A01 T02670217  RH  074%=      5-min Rain = 0
KCH1 161347Z 17005KT 27/22 A3002 RMK A01 T02670217  RH  074%=      5-min Rain = 0
KCH1 161348Z 16004KT 27/22 A3002 RMK A01 T02670218  RH  075%=      5-min Rain = 0
KCH1 161349Z 16005KT 27/22 A3002 RMK A01 T02660217  RH  075%=      5-min Rain = 0
KCH1 161350Z 17005KT 27/22 A3002 RMK A01 T02670218  RH  074%=      5-min Rain = 0
KCH1 161351Z 16004KT 27/22 A3002 RMK A01 T02670219  RH  075%=      5-min Rain = 0
KCH1 161352Z 18004KT 27/22 A3002 RMK A01 T02680218  RH  074%=      5-min Rain = 0
KCH1 161353Z 19004KT 27/22 A3002 RMK A01 T02680219  RH  075%=      5-min Rain = 0
KCH1 161354Z 18003KT 27/22 A3002 RMK A01 T02690219  RH  074%=      5-min Rain = 0
KCH1 161355Z 18006KT 27/22 A3002 RMK A01 T02690220  RH  074%=      5-min Rain = 0
KCH1 161356Z 18006KT 27/22 A3002 RMK A01 T02690218  RH  073%=      5-min Rain = 0
KCH1 161357Z 19007KT 27/22 A3002 RMK A01 T02680219  RH  074%=      5-min Rain = 0
KCH1 161358Z 18005KT 27/22 A3002 RMK A01 T02680219  RH  074%=      5-min Rain = 0
KCH1 161359Z 19007KT 27/22 A3002 RMK A01 T02680219  RH  075%=      5-min Rain = 0
KCH1 161400Z 18007KT 27/22 A3002 RMK A01 T02680218  RH  074%=      5-min Rain = 0
KCH1 161401Z 18007KT 27/22 A3002 RMK A01 T02680218  RH  074%=      5-min Rain = 0
KCH1 161402Z 19007KT 27/22 A3002 RMK A01 T02680219  RH  075%=      5-min Rain = 0
KCH1 161403Z 19005KT 27/22 A3002 RMK A01 T02680219  RH  075%=      5-min Rain = 0
KCH1 161404Z 19005KT 27/22 A3002 RMK A01 T02690221  RH  075%=      5-min Rain = 0
KCH1 161405Z 17008KT 27/22 A3002 RMK A01 T02710221  RH  074%=      5-min Rain = 0
KCH1 161406Z 17007KT 27/22 A3002 RMK A01 T02710220  RH  074%=      5-min Rain = 0
KCH1 161407Z 21007KT 27/22 A3002 RMK A01 T02710221  RH  074%=      5-min Rain = 0
KCH1 161408Z 20004KT 27/22 A3002 RMK A01 T02720222  RH  074%=      5-min Rain = 0
KCH1 161409Z 20005G10KT 27/22 A3002 RMK A01 T02730222  RH  074%=      5-min Rain = 0
KCH1 161410Z 22006KT 27/22 A3002 RMK A01 T02740222  RH  073%=      5-min Rain = 0
KCH1 161411Z 22007KT 28/22 A3002 RMK A01 T02750222  RH  073%=      5-min Rain = 0
KCH1 161412Z 22009KT 28/22 A3002 RMK A01 T02750222  RH  073%=      5-min Rain = 0
KCH1 161413Z 22006KT 27/22 A3002 RMK A01 T02740223  RH  073%=      5-min Rain = 0
KCH1 161414Z 22007KT 27/22 A3002 RMK A01 T02740222  RH  073%=      5-min Rain = 0
KCH1 161415Z 21009G14KT 27/22 A3002 RMK A01 T02740221  RH  073%=      5-min Rain = 0
KCH1 161416Z 22010KT 27/22 A3002 RMK A01 T02730221  RH  073%=      5-min Rain = 0
KCH1 161417Z 21009KT 27/22 A3002 RMK A01 T02720222  RH  074%=      5-min Rain = 0
KCH1 161418Z 21008KT 27/22 A3002 RMK A01 T02730221  RH  074%=      5-min Rain = 0
KCH1 161419Z 22008KT 27/22 A3002 RMK A01 T02730222  RH  073%=      5-min Rain = 0
KCH1 161420Z 21010KT 27/22 A3003 RMK A01 T02740222  RH  073%=      5-min Rain = 0
KCH1 161421Z 21007KT 27/22 A3003 RMK A01 T02740222  RH  073%=      5-min Rain = 0
KCH1 161422Z 21004KT 27/22 A3003 RMK A01 T02740222  RH  073%=      5-min Rain = 0
KCH1 161423Z 19004KT 28/22 A3003 RMK A01 T02750224  RH  074%=      5-min Rain = 0
KCH1 161424Z 19007KT 28/22 A3003 RMK A01 T02770224  RH  073%=      5-min Rain = 0
KCH1 161425Z 19006KT 28/22 A3003 RMK A01 T02780224  RH  072%=      5-min Rain = 0
KCH1 161426Z 20007KT 28/23 A3003 RMK A01 T02790225  RH  072%=      5-min Rain = 0
KCH1 161427Z 18006KT 28/22 A3003 RMK A01 T02790224  RH  072%=      5-min Rain = 0
KCH1 161428Z 19007KT 28/22 A3002 RMK A01 T02790224  RH  072%=      5-min Rain = 0
KCH1 161429Z 20007KT 28/22 A3002 RMK A01 T02790224  RH  072%=      5-min Rain = 0
KCH1 161430Z 20007KT 28/22 A3002 RMK A01 T02810224  RH  071%=      5-min Rain = 0
KCH1 161431Z 19008KT 28/22 A3002 RMK A01 T02820224  RH  071%=      5-min Rain = 0
KCH1 161432Z 18009KT 28/23 A3002 RMK A01 T02830225  RH  071%=      5-min Rain = 0
KCH1 161433Z 20008KT 28/23 A3002 RMK A01 T02840225  RH  070%=      5-min Rain = 0
KCH1 161434Z 20010KT 28/22 A3002 RMK A01 T02840224  RH  070%=      5-min Rain = 0
KCH1 161435Z 20009KT 28/22 A3003 RMK A01 T02830224  RH  070%=      5-min Rain = 0
KCH1 161436Z 19009KT 28/22 A3003 RMK A01 T02830223  RH  070%=      5-min Rain = 0
KCH1 161437Z 19008KT 28/22 A3003 RMK A01 T02820224  RH  070%=      5-min Rain = 0
KCH1 161438Z 19010KT 28/22 A3003 RMK A01 T02830224  RH  071%=      5-min Rain = 0
KCH1 161439Z 19009KT 28/22 A3002 RMK A01 T02830223  RH  070%=      5-min Rain = 0
KCH1 161440Z 19008KT 28/22 A3002 RMK A01 T02830223  RH  070%=      5-min Rain = 0
KCH1 161441Z 19008KT 28/22 A3002 RMK A01 T02820224  RH  070%=      5-min Rain = 0
KCH1 161442Z 19008KT 28/22 A3002 RMK A01 T02830223  RH  070%=      5-min Rain = 0
KCH1 161443Z 19009KT 28/22 A3002 RMK A01 T02830224  RH  070%=      5-min Rain = 0
KCH1 161444Z 19008KT 28/22 A3002 RMK A01 T02840224  RH  070%=      5-min Rain = 0
KCH1 161445Z 19007KT 29/22 A3002 RMK A01 T02850224  RH  069%=      5-min Rain = 0
KCH1 161446Z 20007KT 29/23 A3002 RMK A01 T02860225  RH  070%=      5-min Rain = 0
KCH1 161447Z 21008KT 29/23 A3002 RMK A01 T02870225  RH  069%=      5-min Rain = 0
KCH1 161448Z 21008KT 29/23 A3002 RMK A01 T02880225  RH  069%=      5-min Rain = 0
KCH1 161449Z 21007KT 29/23 A3002 RMK A01 T02880226  RH  069%=      5-min Rain = 0
KCH1 161450Z 21007KT 29/23 A3002 RMK A01 T02870225  RH  069%=      5-min Rain = 0
KCH1 161451Z 21008KT 29/23 A3002 RMK A01 T02870225  RH  069%=      5-min Rain = 0
KCH1 161452Z 22008KT 29/22 A3002 RMK A01 T02870224  RH  069%=      5-min Rain = 0
KCH1 161453Z 22007KT 29/22 A3002 RMK A01 T02860224  RH  069%=      5-min Rain = 0
KCH1 161454Z 20007KT 29/23 A3002 RMK A01 T02860225  RH  070%=      5-min Rain = 0
KCH1 161455Z 19008KT 29/23 A3002 RMK A01 T02870225  RH  069%=      5-min Rain = 0
KCH1 161456Z 20009KT 29/22 A3002 RMK A01 T02880224  RH  068%=      5-min Rain = 0
KCH1 161457Z 20010KT 29/23 A3002 RMK A01 T02880225  RH  069%=      5-min Rain = 0
KCH1 161458Z 20007KT 29/23 A3002 RMK A01 T02880225  RH  068%=      5-min Rain = 0
KCH1 161459Z 20010KT 29/23 A3002 RMK A01 T02890225  RH  068%=      5-min Rain = 0
KCH1 161500Z 18008KT 29/23 A3003 RMK A01 T02900226  RH  068%=      5-min Rain = 0
KCH1 161501Z 18009KT 29/23 A3003 RMK A01 T02910225  RH  068%=      5-min Rain = 0
KCH1 161502Z 19008KT 29/23 A3003 RMK A01 T02920225  RH  067%=      5-min Rain = 0
KCH1 161503Z 20006KT 29/23 A3003 RMK A01 T02920226  RH  068%=      5-min Rain = 0
KCH1 161504Z 19008KT 29/23 A3002 RMK A01 T02920226  RH  067%=      5-min Rain = 0
KCH1 161505Z 20010KT 29/23 A3002 RMK A01 T02920225  RH  067%=      5-min Rain = 0
KCH1 161506Z 20006KT 29/23 A3002 RMK A01 T02920226  RH  067%=      5-min Rain = 0
KCH1 161507Z 21006KT 29/23 A3002 RMK A01 T02920225  RH  067%=      5-min Rain = 0
KCH1 161508Z 22004KT 29/23 A3002 RMK A01 T02930226  RH  067%=      5-min Rain = 0
KCH1 161509Z 21006KT 29/23 A3002 RMK A01 T02940227  RH  067%=      5-min Rain = 0
KCH1 161510Z 20009KT 30/23 A3002 RMK A01 T02950226  RH  067%=      5-min Rain = 0
KCH1 161511Z 20006KT 30/23 A3002 RMK A01 T02950225  RH  066%=      5-min Rain = 0
KCH1 161512Z 20004KT 29/23 A3002 RMK A01 T02930226  RH  067%=      5-min Rain = 0
KCH1 161513Z 19006KT 29/23 A3003 RMK A01 T02940229  RH  068%=      5-min Rain = 0
KCH1 161514Z 19008KT 30/23 A3003 RMK A01 T02970226  RH  066%=      5-min Rain = 0
KCH1 161515Z 20009KT 30/23 A3002 RMK A01 T02970226  RH  065%=      5-min Rain = 0
KCH1 161516Z 20008KT 30/23 A3002 RMK A01 T02950226  RH  066%=      5-min Rain = 0
KCH1 161517Z 20007KT 30/23 A3002 RMK A01 T02950226  RH  066%=      5-min Rain = 0
KCH1 161518Z 20007KT 29/23 A3002 RMK A01 T02940225  RH  066%=      5-min Rain = 0
KCH1 161519Z 19008KT 30/23 A3002 RMK A01 T02960227  RH  066%=      5-min Rain = 0
KCH1 161520Z 20008KT 30/23 A3002 RMK A01 T02980227  RH  065%=      5-min Rain = 0
KCH1 161521Z 20007KT 30/23 A3002 RMK A01 T03000227  RH  065%=      5-min Rain = 0
KCH1 161522Z 20009KT 30/23 A3002 RMK A01 T03010227  RH  065%=      5-min Rain = 0
KCH1 161523Z 20010KT 30/22 A3003 RMK A01 T03010224  RH  064%=      5-min Rain = 0
KCH1 161524Z 19007KT 30/23 A3003 RMK A01 T02990225  RH  064%=      5-min Rain = 0
KCH1 161525Z 19009KT 30/22 A3003 RMK A01 T02980224  RH  065%=      5-min Rain = 0
KCH1 161526Z 22007G12KT 30/23 A3003 RMK A01 T02980225  RH  065%=      5-min Rain = 0
KCH1 161527Z 23007KT 30/22 A3003 RMK A01 T02990224  RH  064%=      5-min Rain = 0
KCH1 161528Z 23005KT 30/23 A3003 RMK A01 T02990225  RH  065%=      5-min Rain = 0
KCH1 161529Z 21006KT 30/23 A3003 RMK A01 T03000227  RH  065%=      5-min Rain = 0
KCH1 161530Z 21005KT 30/23 A3003 RMK A01 T03020228  RH  065%=      5-min Rain = 0
KCH1 161531Z 19007KT 30/23 A3003 RMK A01 T03040228  RH  064%=      5-min Rain = 0
KCH1 161532Z 19006KT 30/23 A3003 RMK A01 T03040227  RH  064%=      5-min Rain = 0
KCH1 161533Z 18009KT 31/23 A3003 RMK A01 T03050225  RH  062%=      5-min Rain = 0
KCH1 161534Z 17008KT 30/22 A3003 RMK A01 T03040224  RH  062%=      5-min Rain = 0
KCH1 161535Z 19008KT 30/23 A3003 RMK A01 T03030225  RH  063%=      5-min Rain = 0
KCH1 161536Z 19009KT 30/23 A3003 RMK A01 T03040226  RH  063%=      5-min Rain = 0
KCH1 161537Z 20010KT 30/22 A3003 RMK A01 T03040223  RH  062%=      5-min Rain = 0
KCH1 161538Z 20009KT 30/22 A3003 RMK A01 T03030224  RH  063%=      5-min Rain = 0
KCH1 161539Z 19007KT 30/23 A3003 RMK A01 T03030226  RH  063%=      5-min Rain = 0
KCH1 161540Z 19008KT 30/23 A3003 RMK A01 T03030225  RH  063%=      5-min Rain = 0
KCH1 161541Z 20006KT 30/23 A3003 RMK A01 T03030225  RH  063%=      5-min Rain = 0
KCH1 161542Z 21006KT 30/23 A3003 RMK A01 T03030225  RH  063%=      5-min Rain = 0
KCH1 161543Z 20008KT 30/23 A3003 RMK A01 T03020225  RH  064%=      5-min Rain = 0
KCH1 161544Z 19005KT 30/23 A3003 RMK A01 T03010226  RH  064%=      5-min Rain = 0
KCH1 161545Z 22007KT 30/23 A3003 RMK A01 T03010225  RH  064%=      5-min Rain = 0
KCH1 161546Z 22006KT 30/22 A3003 RMK A01 T03010223  RH  063%=      5-min Rain = 0
KCH1 161547Z 21007KT 30/22 A3003 RMK A01 T03010224  RH  063%=      5-min Rain = 0
KCH1 161548Z 19007KT 30/23 A3003 RMK A01 T03020225  RH  063%=      5-min Rain = 0
KCH1 161549Z 18009KT 30/23 A3003 RMK A01 T03040226  RH  063%=      5-min Rain = 0
KCH1 161550Z 18009KT 31/22 A3003 RMK A01 T03050224  RH  062%=      5-min Rain = 0
KCH1 161551Z 17009KT 30/23 A3003 RMK A01 T03040225  RH  063%=      5-min Rain = 0
KCH1 161552Z 17008KT 30/23 A3003 RMK A01 T03040225  RH  063%=      5-min Rain = 0
KCH1 161553Z 19007KT 31/23 A3003 RMK A01 T03050226  RH  063%=      5-min Rain = 0
KCH1 161554Z 18007KT 31/23 A3003 RMK A01 T03080225  RH  061%=      5-min Rain = 0
KCH1 161555Z 20009KT 31/23 A3003 RMK A01 T03080225  RH  061%=      5-min Rain = 0
KCH1 161556Z 20007KT 31/23 A3003 RMK A01 T03080225  RH  061%=      5-min Rain = 0
KCH1 161557Z 22008KT 31/23 A3003 RMK A01 T03080226  RH  062%=      5-min Rain = 0
KCH1 161558Z 21007KT 31/23 A3003 RMK A01 T03090226  RH  061%=      5-min Rain = 0
KCH1 161559Z 22008KT 31/22 A3003 RMK A01 T03090224  RH  060%=      5-min Rain = 0
KCH1 161600Z 22010KT 31/22 A3003 RMK A01 T03100224  RH  060%=      5-min Rain = 0
KCH1 161601Z 22010KT 31/22 A3003 RMK A01 T03090222  RH  060%=      5-min Rain = 0
KCH1 161602Z 21009KT 31/22 A3003 RMK A01 T03070224  RH  061%=      5-min Rain = 0
KCH1 161603Z 21007KT 31/22 A3003 RMK A01 T03070224  RH  062%=      5-min Rain = 0
KCH1 161604Z 21006KT 31/23 A3003 RMK A01 T03080226  RH  061%=      5-min Rain = 0
KCH1 161605Z 19006KT 31/23 A3003 RMK A01 T03100226  RH  061%=      5-min Rain = 0
KCH1 161606Z 20005KT 31/23 A3003 RMK A01 T03110226  RH  061%=      5-min Rain = 0
KCH1 161607Z 22006KT 31/23 A3003 RMK A01 T03110226  RH  061%=      5-min Rain = 0
KCH1 161608Z 23006KT 31/23 A3003 RMK A01 T03120227  RH  061%=      5-min Rain = 0
KCH1 161609Z 22006KT 31/23 A3003 RMK A01 T03130226  RH  060%=      5-min Rain = 0
KCH1 161610Z 21006KT 31/23 A3003 RMK A01 T03140229  RH  061%=      5-min Rain = 0
KCH1 161611Z 20010KT 32/23 A3003 RMK A01 T03170228  RH  059%=      5-min Rain = 0
KCH1 161612Z 21009KT 32/22 A3003 RMK A01 T03160224  RH  058%=      5-min Rain = 0
KCH1 161613Z 22006KT 31/22 A3003 RMK A01 T03130224  RH  059%=      5-min Rain = 0
KCH1 161614Z 21005KT 31/22 A3003 RMK A01 T03130224  RH  059%=      5-min Rain = 0
KCH1 161615Z 20007KT 32/22 A3003 RMK A01 T03150223  RH  058%=      5-min Rain = 0
KCH1 161616Z 21009KT 32/22 A3003 RMK A01 T03150224  RH  058%=      5-min Rain = 0
KCH1 161617Z 21008KT 32/22 A3003 RMK A01 T03150223  RH  058%=      5-min Rain = 0
KCH1 161618Z 21007KT 31/22 A3003 RMK A01 T03130223  RH  059%=      5-min Rain = 0
KCH1 161619Z 22005KT 31/22 A3003 RMK A01 T03130223  RH  059%=      5-min Rain = 0
KCH1 161620Z 21008KT 31/23 A3003 RMK A01 T03130225  RH  059%=      5-min Rain = 0
KCH1 161621Z 21008KT 32/23 A3003 RMK A01 T03160226  RH  059%=      5-min Rain = 0
KCH1 161622Z 21005KT 32/23 A3003 RMK A01 T03180225  RH  058%=      5-min Rain = 0
KCH1 161623Z 21005KT 32/23 A3003 RMK A01 T03170226  RH  058%=      5-min Rain = 0
KCH1 161624Z 21006KT 32/23 A3003 RMK A01 T03180226  RH  058%=      5-min Rain = 0
KCH1 161625Z 20007KT 32/23 A3003 RMK A01 T03190227  RH  058%=      5-min Rain = 0
KCH1 161626Z 19008KT 32/23 A3003 RMK A01 T03200228  RH  058%=      5-min Rain = 0
KCH1 161627Z 20005KT 32/23 A3003 RMK A01 T03200228  RH  058%=      5-min Rain = 0
KCH1 161628Z 20004G10KT 32/23 A3003 RMK A01 T03210229  RH  059%=      5-min Rain = 0
KCH1 161629Z 21008KT 32/23 A3003 RMK A01 T03230226  RH  057%=      5-min Rain = 0
KCH1 161630Z 22009KT 32/22 A3003 RMK A01 T03210224  RH  056%=      5-min Rain = 0
KCH1 161631Z 22008KT 32/22 A3003 RMK A01 T03180221  RH  057%=      5-min Rain = 0
KCH1 161632Z 21005KT 32/22 A3003 RMK A01 T03150223  RH  058%=      5-min Rain = 0
KCH1 161633Z 18008KT 32/23 A3003 RMK A01 T03150225  RH  059%=      5-min Rain = 0
KCH1 161634Z 18008KT 32/23 A3003 RMK A01 T03170227  RH  059%=      5-min Rain = 0
KCH1 161635Z 19009KT 32/23 A3003 RMK A01 T03200225  RH  057%=      5-min Rain = 0
KCH1 161636Z 20008KT 32/22 A3003 RMK A01 T03180224  RH  058%=      5-min Rain = 0
KCH1 161637Z 19006KT 32/22 A3003 RMK A01 T03150224  RH  058%=      5-min Rain = 0
KCH1 161638Z 19009KT 31/22 A3003 RMK A01 T03140224  RH  059%=      5-min Rain = 0
KCH1 161639Z 17009KT 32/23 A3003 RMK A01 T03160225  RH  059%=      5-min Rain = 0
KCH1 161640Z 17010KT 32/22 A3003 RMK A01 T03190223  RH  057%=      5-min Rain = 0
KCH1 161641Z 20011KT 32/23 A3003 RMK A01 T03200225  RH  057%=      5-min Rain = 0
KCH1 161642Z 19010KT 32/22 A3003 RMK A01 T03200223  RH  057%=      5-min Rain = 0
KCH1 161643Z 18007KT 32/22 A3003 RMK A01 T03190223  RH  057%=      5-min Rain = 0
KCH1 161644Z 21005KT 32/23 A3003 RMK A01 T03190225  RH  058%=      5-min Rain = 0
KCH1 161645Z 20006KT 32/23 A3003 RMK A01 T03210225  RH  057%=      5-min Rain = 0
KCH1 161646Z 18008KT 32/22 A3003 RMK A01 T03210223  RH  056%=      5-min Rain = 0
KCH1 161647Z 19012KT 32/22 A3003 RMK A01 T03220223  RH  056%=      5-min Rain = 0
KCH1 161648Z 18010KT 32/22 A3003 RMK A01 T03210219  RH  055%=      5-min Rain = 0
KCH1 161649Z 18008KT 32/22 A3003 RMK A01 T03200223  RH  056%=      5-min Rain = 0
KCH1 161650Z 18009KT 32/22 A3003 RMK A01 T03220222  RH  056%=      5-min Rain = 0
KCH1 161651Z 18011KT 32/22 A3003 RMK A01 T03220224  RH  056%=      5-min Rain = 0
KCH1 161652Z 18010KT 32/22 A3003 RMK A01 T03230224  RH  056%=      5-min Rain = 0
KCH1 161653Z 18009KT 32/22 A3003 RMK A01 T03210224  RH  056%=      5-min Rain = 0
KCH1 161654Z 18007KT 32/22 A3003 RMK A01 T03210224  RH  057%=      5-min Rain = 0
KCH1 161655Z 19008KT 32/22 A3003 RMK A01 T03230224  RH  056%=      5-min Rain = 0
KCH1 161656Z 17006KT 32/22 A3003 RMK A01 T03240222  RH  055%=      5-min Rain = 0
KCH1 161657Z 16004KT 32/22 A3003 RMK A01 T03220223  RH  056%=      5-min Rain = 0
KCH1 161658Z 19005KT 32/23 A3003 RMK A01 T03220225  RH  057%=      5-min Rain = 0
KCH1 161659Z 20005KT 32/23 A3003 RMK A01 T03240226  RH  056%=      5-min Rain = 0
KCH1 161700Z 21008KT 33/23 A3003 RMK A01 T03270225  RH  055%=      5-min Rain = 0
KCH1 161701Z 23004G10KT 32/22 A3003 RMK A01 T03240222  RH  055%=      5-min Rain = 0
KCH1 161702Z 20008KT 32/22 A3003 RMK A01 T03240223  RH  055%=      5-min Rain = 0
KCH1 161703Z 20006KT 33/22 A3003 RMK A01 T03250222  RH  055%=      5-min Rain = 0
KCH1 161704Z 19007KT 33/22 A3003 RMK A01 T03270223  RH  054%=      5-min Rain = 0
KCH1 161705Z 19008KT 33/22 A3003 RMK A01 T03280224  RH  054%=      5-min Rain = 0
KCH1 161706Z 19007G12KT 33/23 A3003 RMK A01 T03310225  RH  054%=      5-min Rain = 0
KCH1 161707Z 19009KT 33/22 A3003 RMK A01 T03320221  RH  052%=      5-min Rain = 0
KCH1 161708Z 21007KT 33/22 A3004 RMK A01 T03300220  RH  053%=      5-min Rain = 0
KCH1 161709Z 19010G15KT 33/22 A3003 RMK A01 T03270220  RH  053%=      5-min Rain = 0
KCH1 161710Z 17009KT 33/22 A3003 RMK A01 T03260221  RH  054%=      5-min Rain = 0
KCH1 161711Z 18008KT 33/22 A3003 RMK A01 T03260222  RH  054%=      5-min Rain = 0
KCH1 161712Z 20005KT 33/22 A3003 RMK A01 T03260224  RH  055%=      5-min Rain = 0
KCH1 161713Z 20011KT 33/22 A3003 RMK A01 T03280222  RH  054%=      5-min Rain = 0
KCH1 161714Z 20010KT 33/22 A3003 RMK A01 T03270219  RH  053%=      5-min Rain = 0
KCH1 161715Z 20009KT 33/22 A3003 RMK A01 T03250219  RH  054%=      5-min Rain = 0
KCH1 161716Z 21009KT 32/22 A3003 RMK A01 T03240218  RH  054%=      5-min Rain = 0
KCH1 161717Z 22007KT 32/22 A3003 RMK A01 T03240216  RH  053%=      5-min Rain = 0
KCH1 161718Z 20008G13KT 32/22 A3003 RMK A01 T03230219  RH  054%=      5-min Rain = 0
KCH1 161719Z 20010KT 33/22 A3003 RMK A01 T03270220  RH  053%=      5-min Rain = 0
KCH1 161720Z 19009KT 33/22 A3003 RMK A01 T03280217  RH  052%=      5-min Rain = 0
KCH1 161721Z 18011KT 33/22 A3003 RMK A01 T03280217  RH  052%=      5-min Rain = 0
KCH1 161722Z 19006KT 33/22 A3003 RMK A01 T03270218  RH  053%=      5-min Rain = 0
KCH1 161723Z 20007KT 33/22 A3003 RMK A01 T03270217  RH  052%=      5-min Rain = 0
KCH1 161724Z 20008KT 33/22 A3003 RMK A01 T03280217  RH  052%=      5-min Rain = 0
KCH1 161725Z 22007KT 33/22 A3003 RMK A01 T03270219  RH  053%=      5-min Rain = 0
KCH1 161726Z 20007KT 33/22 A3003 RMK A01 T03270218  RH  053%=      5-min Rain = 0
KCH1 161727Z 16009KT 33/22 A3003 RMK A01 T03300222  RH  053%=      5-min Rain = 0
KCH1 161728Z 18006KT 33/22 A3003 RMK A01 T03320224  RH  053%=      5-min Rain = 0
KCH1 161729Z 21005KT 34/22 A3003 RMK A01 T03350222  RH  052%=      5-min Rain = 0
KCH1 161730Z 21005KT 34/22 A3003 RMK A01 T03370221  RH  051%=      5-min Rain = 0
KCH1 161731Z 18007KT 34/22 A3003 RMK A01 T03380221  RH  050%=      5-min Rain = 0
KCH1 161732Z 19007KT 34/22 A3003 RMK A01 T03370221  RH  051%=      5-min Rain = 0
KCH1 161733Z 19009G14KT 34/22 A3003 RMK A01 T03360220  RH  051%=      5-min Rain = 0
KCH1 161734Z 19009KT 34/22 A3003 RMK A01 T03350220  RH  051%=      5-min Rain = 0
KCH1 161735Z 18011KT 34/22 A3003 RMK A01 T03360221  RH  051%=      5-min Rain = 0
KCH1 161736Z 18010KT 34/22 A3003 RMK A01 T03360221  RH  051%=      5-min Rain = 0
KCH1 161737Z 18007KT 33/22 A3003 RMK A01 T03330219  RH  051%=      5-min Rain = 0
KCH1 161738Z 18009KT 33/22 A3003 RMK A01 T03300217  RH  052%=      5-min Rain = 0
KCH1 161739Z 18009KT 33/22 A3003 RMK A01 T03300220  RH  052%=      5-min Rain = 0
KCH1 161740Z 19007KT 33/22 A3003 RMK A01 T03310220  RH  052%=      5-min Rain = 0
KCH1 161741Z 20010KT 33/22 A3003 RMK A01 T03320216  RH  050%=      5-min Rain = 0
KCH1 161742Z 21009KT 33/22 A3003 RMK A01 T03330215  RH  050%=      5-min Rain = 0
KCH1 161743Z 20008KT 33/22 A3003 RMK A01 T03320217  RH  051%=      5-min Rain = 0
KCH1 161744Z 20009KT 33/22 A3003 RMK A01 T03300219  RH  052%=      5-min Rain = 0
KCH1 161745Z 22007KT 33/22 A3003 RMK A01 T03300220  RH  053%=      5-min Rain = 0
KCH1 161746Z 22010KT 33/22 A3003 RMK A01 T03300221  RH  053%=      5-min Rain = 0
KCH1 161747Z 22006KT 33/22 A3003 RMK A01 T03300222  RH  053%=      5-min Rain = 0
KCH1 161748Z 22008KT 33/22 A3003 RMK A01 T03310222  RH  053%=      5-min Rain = 0
KCH1 161749Z 22007KT 33/22 A3003 RMK A01 T03320222  RH  053%=      5-min Rain = 0
KCH1 161750Z 23009KT 33/22 A3003 RMK A01 T03340222  RH  052%=      5-min Rain = 0
KCH1 161751Z 22006KT 34/22 A3003 RMK A01 T03350220  RH  051%=      5-min Rain = 0
KCH1 161752Z 19005KT 34/22 A3003 RMK A01 T03350221  RH  051%=      5-min Rain = 0
KCH1 161753Z 19006KT 34/22 A3003 RMK A01 T03360222  RH  051%=      5-min Rain = 0
KCH1 161754Z 18005KT 34/22 A3003 RMK A01 T03360221  RH  051%=      5-min Rain = 0
KCH1 161755Z 17007KT 34/22 A3003 RMK A01 T03350222  RH  052%=      5-min Rain = 0
KCH1 161756Z 15007KT 34/22 A3003 RMK A01 T03370222  RH  051%=      5-min Rain = 0
KCH1 161757Z 18006KT 34/22 A3003 RMK A01 T03410221  RH  050%=      5-min Rain = 0
KCH1 161758Z 18009KT 34/22 A3003 RMK A01 T03420221  RH  049%=      5-min Rain = 0
KCH1 161759Z 19006KT 34/22 A3003 RMK A01 T03410221  RH  050%=      5-min Rain = 0
KCH1 161800Z 19010KT 34/22 A3003 RMK A01 T03400219  RH  049%=      5-min Rain = 0
KCH1 161801Z 16009KT 34/22 A3003 RMK A01 T03400218  RH  049%=      5-min Rain = 0
KCH1 161802Z 16009KT 34/22 A3003 RMK A01 T03400216  RH  048%=      5-min Rain = 0
KCH1 161803Z 21010KT 34/21 A3003 RMK A01 T03400206  RH  046%=      5-min Rain = 0
KCH1 161804Z 21011KT 34/21 A3003 RMK A01 T03370209  RH  047%=      5-min Rain = 0
KCH1 161805Z 20007KT 34/21 A3003 RMK A01 T03360210  RH  048%=      5-min Rain = 0
KCH1 161806Z 20003KT 34/21 A3003 RMK A01 T03360211  RH  048%=      5-min Rain = 0
KCH1 161807Z 22007KT 34/22 A3003 RMK A01 T03390216  RH  049%=      5-min Rain = 0
KCH1 161808Z 22006KT 34/21 A3003 RMK A01 T03420214  RH  047%=      5-min Rain = 0
KCH1 161809Z 22005KT 34/21 A3003 RMK A01 T03430212  RH  046%=      5-min Rain = 0
KCH1 161810Z 21006KT 34/21 A3003 RMK A01 T03420209  RH  046%=      5-min Rain = 0
KCH1 161811Z 17009KT 34/21 A3003 RMK A01 T03420212  RH  047%=      5-min Rain = 0
KCH1 161812Z 17009KT 34/21 A3003 RMK A01 T03420209  RH  046%=      5-min Rain = 0
KCH1 161813Z 18009KT 34/21 A3003 RMK A01 T03400212  RH  047%=      5-min Rain = 0
KCH1 161814Z 19007KT 34/21 A3003 RMK A01 T03400210  RH  047%=      5-min Rain = 0
KCH1 161815Z 20006KT 34/21 A3003 RMK A01 T03390212  RH  048%=      5-min Rain = 0
KCH1 161816Z 21006KT 34/21 A3003 RMK A01 T03360211  RH  048%=      5-min Rain = 0
KCH1 161817Z 20006KT 33/21 A3003 RMK A01 T03340212  RH  049%=      5-min Rain = 0
KCH1 161818Z 18008KT 34/21 A3003 RMK A01 T03350214  RH  049%=      5-min Rain = 0
KCH1 161819Z 16008KT 34/21 A3003 RMK A01 T03380211  RH  048%=      5-min Rain = 0
KCH1 161820Z 18007KT 34/21 A3003 RMK A01 T03380214  RH  048%=      5-min Rain = 0
KCH1 161821Z 19007KT 34/22 A3002 RMK A01 T03410215  RH  048%=      5-min Rain = 0
KCH1 161822Z 22006KT 34/22 A3002 RMK A01 T03440215  RH  047%=      5-min Rain = 0
KCH1 161823Z 20011KT 35/22 A3002 RMK A01 T03450215  RH  047%=      5-min Rain = 0
KCH1 161824Z 19009KT 34/21 A3002 RMK A01 T03430213  RH  047%=      5-min Rain = 0
KCH1 161825Z 18006KT 34/21 A3002 RMK A01 T03410214  RH  048%=      5-min Rain = 0
KCH1 161826Z 19011KT 34/22 A3002 RMK A01 T03440215  RH  047%=      5-min Rain = 0
KCH1 161827Z 18010KT 35/21 A3002 RMK A01 T03460214  RH  046%=      5-min Rain = 0
KCH1 161828Z 17009KT 34/21 A3002 RMK A01 T03440213  RH  047%=      5-min Rain = 0
KCH1 161829Z 16007KT 34/21 A3002 RMK A01 T03410213  RH  047%=      5-min Rain = 0
KCH1 161830Z 17008KT 34/22 A3002 RMK A01 T03400215  RH  048%=      5-min Rain = 0
KCH1 161831Z 18009KT 34/21 A3002 RMK A01 T03410213  RH  047%=      5-min Rain = 0
KCH1 161832Z 19011KT 34/21 A3002 RMK A01 T03420210  RH  046%=      5-min Rain = 0
KCH1 161833Z 21008KT 34/21 A3002 RMK A01 T03410208  RH  046%=      5-min Rain = 0
KCH1 161834Z 18009KT 34/21 A3002 RMK A01 T03400210  RH  047%=      5-min Rain = 0
KCH1 161835Z 18010KT 34/21 A3002 RMK A01 T03430205  RH  045%=      5-min Rain = 0
KCH1 161836Z 18010KT 34/21 A3002 RMK A01 T03440207  RH  045%=      5-min Rain = 0
KCH1 161837Z 17011KT 35/20 A3002 RMK A01 T03460202  RH  043%=      5-min Rain = 0
KCH1 161838Z 17012KT 35/20 A3002 RMK A01 T03450202  RH  043%=      5-min Rain = 0
KCH1 161839Z 18010KT 34/20 A3002 RMK A01 T03440202  RH  043%=      5-min Rain = 0
KCH1 161840Z 18007KT 34/20 A3002 RMK A01 T03440203  RH  044%=      5-min Rain = 0
KCH1 161841Z 19007KT 35/20 A3002 RMK A01 T03470198  RH  042%=      5-min Rain = 0
KCH1 161842Z 20005KT 34/20 A3002 RMK A01 T03440202  RH  044%=      5-min Rain = 0
KCH1 161843Z 16009KT 35/20 A3002 RMK A01 T03450203  RH  044%=      5-min Rain = 0
KCH1 161844Z 17012KT 35/20 A3002 RMK A01 T03470203  RH  043%=      5-min Rain = 0
KCH1 161845Z 17010KT 35/20 A3002 RMK A01 T03480203  RH  043%=      5-min Rain = 0
KCH1 161846Z 17006KT 35/21 A3002 RMK A01 T03460208  RH  045%=      5-min Rain = 0
KCH1 161847Z 18007KT 35/21 A3002 RMK A01 T03460205  RH  044%=      5-min Rain = 0
KCH1 161848Z 18006KT 35/21 A3002 RMK A01 T03450207  RH  045%=      5-min Rain = 0
KCH1 161849Z 18008KT 35/21 A3002 RMK A01 T03480208  RH  044%=      5-min Rain = 0
KCH1 161850Z 21008KT 35/20 A3002 RMK A01 T03500204  RH  043%=      5-min Rain = 0
KCH1 161851Z 20006KT 35/21 A3002 RMK A01 T03480205  RH  044%=      5-min Rain = 0
KCH1 161852Z 20009KT 35/20 A3001 RMK A01 T03480203  RH  043%=      5-min Rain = 0
KCH1 161853Z 20010G16KT 35/20 A3001 RMK A01 T03490204  RH  043%=      5-min Rain = 0
KCH1 161854Z 21010KT 35/20 A3001 RMK A01 T03510204  RH  042%=      5-min Rain = 0
KCH1 161855Z 21008KT 35/20 A3001 RMK A01 T03500203  RH  042%=      5-min Rain = 0
KCH1 161856Z 20011KT 35/20 A3001 RMK A01 T03450202  RH  043%=      5-min Rain = 0
KCH1 161857Z 20008KT 34/20 A3001 RMK A01 T03410201  RH  044%=      5-min Rain = 0
KCH1 161858Z 20008KT 34/20 A3001 RMK A01 T03400201  RH  044%=      5-min Rain = 0
KCH1 161859Z 21005KT 34/20 A3001 RMK A01 T03400200  RH  044%=      5-min Rain = 0
KCH1 161900Z 20004KT 34/20 A3001 RMK A01 T03430203  RH  044%=      5-min Rain = 0
KCH1 161901Z 20004KT 35/20 A3001 RMK A01 T03460202  RH  043%=      5-min Rain = 0
KCH1 161902Z 20007KT 35/20 A3001 RMK A01 T03480203  RH  043%=      5-min Rain = 0
KCH1 161903Z 19008KT 35/20 A3001 RMK A01 T03510202  RH  042%=      5-min Rain = 0
KCH1 161904Z 19008KT 35/20 A3001 RMK A01 T03520199  RH  041%=      5-min Rain = 0
KCH1 161905Z 18009KT 35/20 A3001 RMK A01 T03500201  RH  042%=      5-min Rain = 0
KCH1 161906Z 20006KT 35/20 A3001 RMK A01 T03500200  RH  042%=      5-min Rain = 0
KCH1 161907Z 18008KT 35/20 A3001 RMK A01 T03510203  RH  042%=      5-min Rain = 0
KCH1 161908Z 17008KT 35/20 A3001 RMK A01 T03500203  RH  042%=      5-min Rain = 0
KCH1 161909Z 16009KT 35/20 A3001 RMK A01 T03490198  RH  041%=      5-min Rain = 0
KCH1 161910Z 17009KT 35/20 A3001 RMK A01 T03490198  RH  041%=      5-min Rain = 0
KCH1 161911Z 18012KT 35/20 A3001 RMK A01 T03510204  RH  042%=      5-min Rain = 0
KCH1 161912Z 19010KT 35/20 A3001 RMK A01 T03510204  RH  042%=      5-min Rain = 0
KCH1 161913Z 18005KT 35/21 A3001 RMK A01 T03490207  RH  044%=      5-min Rain = 0
KCH1 161914Z 17008KT 35/20 A3001 RMK A01 T03500203  RH  042%=      5-min Rain = 0
KCH1 161915Z 18007KT 35/20 A3001 RMK A01 T03480202  RH  042%=      5-min Rain = 0
KCH1 161916Z 16006KT 35/20 A3001 RMK A01 T03480203  RH  043%=      5-min Rain = 0
KCH1 161917Z 15004KT 35/20 A3001 RMK A01 T03480202  RH  042%=      5-min Rain = 0
KCH1 161918Z 21003G8KT 35/21 A3001 RMK A01 T03500207  RH  043%=      5-min Rain = 0
KCH1 161919Z 22008KT 36/21 A3001 RMK A01 T03550205  RH  042%=      5-min Rain = 0
KCH1 161920Z 20009KT 36/20 A3001 RMK A01 T03560201  RH  040%=      5-min Rain = 0
KCH1 161921Z 19007KT 36/20 A3001 RMK A01 T03550200  RH  040%=      5-min Rain = 0
KCH1 161922Z 22006KT 36/20 A3001 RMK A01 T03550201  RH  041%=      5-min Rain = 0
KCH1 161923Z 21007KT 36/20 A30 RMK A01 T03570203  RH  041%=      5-min Rain = 0
KCH1 161924Z 21006KT 36/20 A3001 RMK A01 T03580204  RH  041%=      5-min Rain = 0
KCH1 161925Z 18007G12KT 36/21 A30 RMK A01 T03610207  RH  041%=      5-min Rain = 0
KCH1 161926Z 16009KT 36/21 A30 RMK A01 T03620206  RH  040%=      5-min Rain = 0
KCH1 161927Z 19011KT 36/21 A30 RMK A01 T03630208  RH  041%=      5-min Rain = 0
KCH1 161928Z 21012KT 36/20 A30 RMK A01 T03610200  RH  039%=      5-min Rain = 0
KCH1 161929Z 20009KT 36/20 A30 RMK A01 T03550198  RH  040%=      5-min Rain = 0
KCH1 161930Z 19013KT 35/20 A30 RMK A01 T03530199  RH  040%=      5-min Rain = 0
KCH1 161931Z 19010KT 36/20 A30 RMK A01 T03550198  RH  040%=      5-min Rain = 0
KCH1 161932Z 18012KT 36/20 A30 RMK A01 T03550199  RH  040%=      5-min Rain = 0
KCH1 161933Z 18012KT 35/20 A30 RMK A01 T03530200  RH  041%=      5-min Rain = 0
KCH1 161934Z 19010KT 35/20 A30 RMK A01 T03510200  RH  041%=      5-min Rain = 0
KCH1 161935Z 21008KT 35/20 A30 RMK A01 T03500197  RH  041%=      5-min Rain = 0
KCH1 161936Z 17007KT 35/20 A30 RMK A01 T03490199  RH  041%=      5-min Rain = 0
KCH1 161937Z 17011KT 35/20 A30 RMK A01 T03490196  RH  041%=      5-min Rain = 0
KCH1 161938Z 17010KT 35/20 A30 RMK A01 T03510196  RH  040%=      5-min Rain = 0
KCH1 161939Z 17010KT 36/20 A30 RMK A01 T03560195  RH  039%=      5-min Rain = 0
KCH1 161940Z 19010KT 36/19 A30 RMK A01 T03560194  RH  039%=      5-min Rain = 0
KCH1 161941Z 17008KT 36/20 A30 RMK A01 T03550199  RH  040%=      5-min Rain = 0
KCH1 161942Z 18010KT 36/20 A30 RMK A01 T03580197  RH  039%=      5-min Rain = 0
KCH1 161943Z 19007KT 36/20 A30 RMK A01 T03590199  RH  039%=      5-min Rain = 0
KCH1 161944Z 19009KT 36/20 A30 RMK A01 T03580200  RH  040%=      5-min Rain = 0
KCH1 161945Z 16010KT 36/20 A30 RMK A01 T03590203  RH  040%=      5-min Rain = 0
KCH1 161946Z 17009KT 36/20 A30 RMK A01 T03610200  RH  039%=      5-min Rain = 0
KCH1 161947Z 17008G14KT 36/20 A30 RMK A01 T03600200  RH  039%=      5-min Rain = 0
KCH1 161948Z 18010G15KT 36/20 A30 RMK A01 T03600199  RH  039%=      5-min Rain = 0
KCH1 161949Z 17009KT 36/20 A30 RMK A01 T03580198  RH  039%=      5-min Rain = 0
KCH1 161950Z 19009G14KT 36/20 A30 RMK A01 T03580197  RH  039%=      5-min Rain = 0
KCH1 161951Z 20009G14KT 36/20 A30 RMK A01 T03590199  RH  039%=      5-min Rain = 0
KCH1 161952Z 19008KT 36/19 A30 RMK A01 T03570194  RH  038%=      5-min Rain = 0
KCH1 161953Z 20007KT 35/20 A30 RMK A01 T03540196  RH  039%=      5-min Rain = 0
KCH1 161954Z 20009KT 36/20 A30 RMK A01 T03550197  RH  039%=      5-min Rain = 0
KCH1 161955Z 19007KT 36/19 A30 RMK A01 T03550194  RH  039%=      5-min Rain = 0
KCH1 161956Z 20005KT 35/20 A30 RMK A01 T03520196  RH  040%=      5-min Rain = 0
KCH1 161957Z 19006G11KT 35/20 A30 RMK A01 T03530196  RH  040%=      5-min Rain = 0
KCH1 161958Z 22007KT 36/20 A2999 RMK A01 T03550198  RH  040%=      5-min Rain = 0
KCH1 161959Z 21007KT 36/20 A2999 RMK A01 T03600198  RH  039%=      5-min Rain = 0
KCH1 162000Z 21011KT 36/20 A2999 RMK A01 T03610197  RH  038%=      5-min Rain = 0
KCH1 162001Z 21011KT 36/20 A2999 RMK A01 T03590196  RH  038%=      5-min Rain = 0
KCH1 162002Z 20008KT 36/20 A2999 RMK A01 T03570195  RH  039%=      5-min Rain = 0
KCH1 162003Z 20010KT 36/19 A2999 RMK A01 T03570194  RH  039%=      5-min Rain = 0
KCH1 162004Z 20005KT 36/20 A2999 RMK A01 T03580198  RH  039%=      5-min Rain = 0
KCH1 162005Z 20005KT 36/20 A2999 RMK A01 T03610197  RH  038%=      5-min Rain = 0
KCH1 162006Z 20006KT 36/20 A2999 RMK A01 T03640197  RH  038%=      5-min Rain = 0
KCH1 162007Z 20006KT 36/20 A2999 RMK A01 T03640196  RH  038%=      5-min Rain = 0
KCH1 162008Z 17008KT 36/19 A2999 RMK A01 T03640193  RH  037%=      5-min Rain = 0
KCH1 162009Z 16010G16KT 37/20 A2999 RMK A01 T03660195  RH  037%=      5-min Rain = 0
KCH1 162010Z 17013KT 37/19 A2999 RMK A01 T03670192  RH  036%=      5-min Rain = 0
KCH1 162011Z 17011KT 36/19 A2999 RMK A01 T03630192  RH  037%=      5-min Rain = 0
KCH1 162012Z 18009KT 36/20 A2999 RMK A01 T03610195  RH  038%=      5-min Rain = 0
KCH1 162013Z 20008KT 36/19 A2999 RMK A01 T03610194  RH  038%=      5-min Rain = 0
KCH1 162014Z 21008KT 36/20 A2999 RMK A01 T03610198  RH  038%=      5-min Rain = 0
KCH1 162015Z 22007KT 36/20 A2999 RMK A01 T03610198  RH  038%=      5-min Rain = 0
KCH1 162016Z 22007KT 36/19 A2999 RMK A01 T03610193  RH  037%=      5-min Rain = 0
KCH1 162017Z 21005KT 36/19 A2999 RMK A01 T03570191  RH  038%=      5-min Rain = 0
KCH1 162018Z 18004KT 35/19 A2999 RMK A01 T03530192  RH  039%=      5-min Rain = 0
KCH1 162019Z 19002KT 35/19 A2998 RMK A01 T03510194  RH  040%=      5-min Rain = 0
KCH1 162020Z 19004KT 35/19 A2998 RMK A01 T03500191  RH  039%=      5-min Rain = 0
KCH1 162021Z 19005KT 35/19 A2998 RMK A01 T03480193  RH  040%=      5-min Rain = 0
KCH1 162022Z 19008KT 35/20 A2998 RMK A01 T03480195  RH  041%=      5-min Rain = 0
KCH1 162023Z 19010KT 35/20 A2998 RMK A01 T03530196  RH  040%=      5-min Rain = 0
KCH1 162024Z 18011KT 36/19 A2998 RMK A01 T03570192  RH  038%=      5-min Rain = 0
KCH1 162025Z 17008KT 36/20 A2998 RMK A01 T03570195  RH  039%=      5-min Rain = 0
KCH1 162026Z 14010G16KT 36/20 A2998 RMK A01 T03580195  RH  038%=      5-min Rain = 0
KCH1 162027Z 13010G15KT 36/19 A2998 RMK A01 T03560191  RH  038%=      5-min Rain = 0
KCH1 162028Z 12009KT 36/19 A2998 RMK A01 T03550190  RH  038%=      5-min Rain = 0
KCH1 162029Z 13008KT 36/19 A2998 RMK A01 T03560191  RH  038%=      5-min Rain = 0
KCH1 162030Z 15009KT 36/19 A2998 RMK A01 T03580191  RH  038%=      5-min Rain = 0
KCH1 162031Z 15006KT 36/19 A2998 RMK A01 T03600193  RH  038%=      5-min Rain = 0
KCH1 162032Z 15009KT 36/19 A2998 RMK A01 T03640194  RH  037%=      5-min Rain = 0
KCH1 162033Z 18006KT 37/19 A2998 RMK A01 T03650191  RH  036%=      5-min Rain = 0
KCH1 162034Z 19007KT 37/20 A2998 RMK A01 T03650197  RH  038%=      5-min Rain = 0
KCH1 162035Z 19005KT 37/20 A2998 RMK A01 T03660195  RH  037%=      5-min Rain = 0
KCH1 162036Z 20006KT 37/20 A2998 RMK A01 T03660195  RH  037%=      5-min Rain = 0
KCH1 162037Z 19011G16KT 37/19 A2998 RMK A01 T03650194  RH  037%=      5-min Rain = 0
KCH1 162038Z 20010KT 36/19 A2998 RMK A01 T03630193  RH  037%=      5-min Rain = 0
KCH1 162039Z 21009KT 36/19 A2998 RMK A01 T03610189  RH  036%=      5-min Rain = 0
KCH1 162040Z 21009G14KT 36/19 A2998 RMK A01 T03590190  RH  037%=      5-min Rain = 0
KCH1 162041Z 21008KT 36/19 A2998 RMK A01 T03580188  RH  037%=      5-min Rain = 0
KCH1 162042Z 22008KT 36/19 A2997 RMK A01 T03580191  RH  037%=      5-min Rain = 0
KCH1 162043Z 20009KT 36/19 A2997 RMK A01 T03590188  RH  037%=      5-min Rain = 0
KCH1 162044Z 18008KT 36/19 A2997 RMK A01 T03600192  RH  037%=      5-min Rain = 0
KCH1 162045Z 16010KT 36/19 A2997 RMK A01 T03630192  RH  037%=      5-min Rain = 0
KCH1 162046Z 19012KT 37/18 A2997 RMK A01 T03660184  RH  034%=      5-min Rain = 0
KCH1 162047Z 19010KT 36/18 A2997 RMK A01 T03640181  RH  034%=      5-min Rain = 0
KCH1 162048Z 17009KT 36/18 A2997 RMK A01 T03630182  RH  034%=      5-min Rain = 0
KCH1 162049Z 17008KT 36/18 A2997 RMK A01 T03640180  RH  034%=      5-min Rain = 0
KCH1 162050Z 20006KT 36/18 A2997 RMK A01 T03630182  RH  035%=      5-min Rain = 0
KCH1 162051Z 19010KT 36/18 A2997 RMK A01 T03640183  RH  035%=      5-min Rain = 0
KCH1 162052Z 19011KT 36/18 A2997 RMK A01 T03630184  RH  035%=      5-min Rain = 0
KCH1 162053Z 17012KT 36/19 A2997 RMK A01 T03620187  RH  036%=      5-min Rain = 0
KCH1 162054Z 19013KT 36/19 A2997 RMK A01 T03620186  RH  036%=      5-min Rain = 0
KCH1 162055Z 19010KT 36/19 A2997 RMK A01 T03620187  RH  036%=      5-min Rain = 0
KCH1 162056Z 19010KT 36/19 A2997 RMK A01 T03620186  RH  036%=      5-min Rain = 0
KCH1 162057Z 20009KT 36/19 A2997 RMK A01 T03630185  RH  035%=      5-min Rain = 0
KCH1 162058Z 19006KT 36/19 A2997 RMK A01 T03620188  RH  036%=      5-min Rain = 0
KCH1 162059Z 17007KT 36/19 A2997 RMK A01 T03640188  RH  036%=      5-min Rain = 0
KCH1 162100Z 17010KT 37/19 A2997 RMK A01 T03670186  RH  035%=      5-min Rain = 0
KCH1 162101Z 16009KT 37/18 A2997 RMK A01 T03680184  RH  034%=      5-min Rain = 0
KCH1 162102Z 17008KT 37/19 A2997 RMK A01 T03680186  RH  034%=      5-min Rain = 0
KCH1 162103Z 18004KT 37/18 A2997 RMK A01 T03660178  RH  033%=      5-min Rain = 0
KCH1 162104Z 15005G10KT 36/18 A2997 RMK A01 T03610183  RH  035%=      5-min Rain = 0
KCH1 162105Z 17010KT 36/19 A2997 RMK A01 T03640185  RH  035%=      5-min Rain = 0
KCH1 162106Z 17010KT 37/18 A2997 RMK A01 T03660182  RH  034%=      5-min Rain = 0
KCH1 162107Z 17009KT 36/18 A2997 RMK A01 T03630183  RH  035%=      5-min Rain = 0
KCH1 162108Z 17011KT 36/18 A2997 RMK A01 T03600180  RH  035%=      5-min Rain = 0
KCH1 162109Z 17011KT 36/18 A2997 RMK A01 T03570182  RH  036%=      5-min Rain = 0
KCH1 162110Z 17009KT 36/18 A2997 RMK A01 T03570183  RH  036%=      5-min Rain = 0
KCH1 162111Z 18009KT 36/18 A2997 RMK A01 T03580179  RH  035%=      5-min Rain = 0
KCH1 162112Z 18008KT 36/18 A2997 RMK A01 T03600182  RH  035%=      5-min Rain = 0
KCH1 162113Z 18006KT 36/18 A2997 RMK A01 T03610180  RH  035%=      5-min Rain = 0
KCH1 162114Z 18008KT 36/18 A2997 RMK A01 T03620183  RH  035%=      5-min Rain = 0
KCH1 162115Z 17008KT 36/18 A2997 RMK A01 T03620182  RH  035%=      5-min Rain = 0
KCH1 162116Z 17010KT 36/18 A2997 RMK A01 T03620182  RH  035%=      5-min Rain = 0
KCH1 162117Z 16010KT 36/18 A2997 RMK A01 T03620180  RH  034%=      5-min Rain = 0
KCH1 162118Z 16012KT 36/18 A2997 RMK A01 T03630180  RH  034%=      5-min Rain = 0
KCH1 162119Z 16015KT 36/18 A2997 RMK A01 T03630179  RH  034%=      5-min Rain = 0
KCH1 162120Z 17009G14KT 36/18 A2997 RMK A01 T03640179  RH  034%=      5-min Rain = 0
KCH1 162121Z 21007KT 37/19 A2997 RMK A01 T03650185  RH  035%=      5-min Rain = 0
KCH1 162122Z 20006KT 37/19 A2997 RMK A01 T03690185  RH  034%=      5-min Rain = 0
KCH1 162123Z 21006KT 37/18 A2996 RMK A01 T03700178  RH  032%=      5-min Rain = 0
KCH1 162124Z 19007KT 37/18 A2996 RMK A01 T03670179  RH  033%=      5-min Rain = 0
KCH1 162125Z 17004KT 37/18 A2996 RMK A01 T03660180  RH  034%=      5-min Rain = 0
KCH1 162126Z 19008KT 37/18 A2996 RMK A01 T03680183  RH  034%=      5-min Rain = 0
KCH1 162127Z 18008KT 37/18 A2996 RMK A01 T03700182  RH  033%=      5-min Rain = 0
KCH1 162128Z 16010KT 37/19 A2996 RMK A01 T03700185  RH  034%=      5-min Rain = 0
KCH1 162129Z 15009KT 37/19 A2996 RMK A01 T03700185  RH  034%=      5-min Rain = 0
KCH1 162130Z 19009KT 37/18 A2996 RMK A01 T03710181  RH  033%=      5-min Rain = 0
KCH1 162131Z 20007KT 37/18 A2996 RMK A01 T03700176  RH  032%=      5-min Rain = 0
KCH1 162132Z 20011KT 37/17 A2996 RMK A01 T03670174  RH  032%=      5-min Rain = 0
KCH1 162133Z 21006KT 36/18 A2996 RMK A01 T03630175  RH  033%=      5-min Rain = 0
KCH1 162134Z 18006KT 36/18 A2996 RMK A01 T03620177  RH  034%=      5-min Rain = 0
KCH1 162135Z 17011KT 36/18 A2996 RMK A01 T03640181  RH  034%=      5-min Rain = 0
KCH1 162136Z 17009KT 37/18 A2996 RMK A01 T03660177  RH  033%=      5-min Rain = 0
KCH1 162137Z 16010KT 36/18 A2996 RMK A01 T03630180  RH  034%=      5-min Rain = 0
KCH1 162138Z 15012KT 36/18 A2996 RMK A01 T03630183  RH  035%=      5-min Rain = 0
KCH1 162139Z 15009KT 36/18 A2996 RMK A01 T03640178  RH  033%=      5-min Rain = 0
KCH1 162140Z 15008KT 36/18 A2996 RMK A01 T03620181  RH  035%=      5-min Rain = 0
KCH1 162141Z 16011G17KT 36/19 A2996 RMK A01 T03630185  RH  035%=      5-min Rain = 0
KCH1 162142Z 15015G20KT 37/18 A2996 RMK A01 T03650179  RH  033%=      5-min Rain = 0
KCH1 162143Z 15015KT 36/18 A2996 RMK A01 T03640179  RH  034%=      5-min Rain = 0
KCH1 162144Z 15016KT 36/18 A2996 RMK A01 T03640180  RH  034%=      5-min Rain = 0
KCH1 162145Z 15012KT 36/18 A2996 RMK A01 T03640178  RH  033%=      5-min Rain = 0
KCH1 162146Z 17012KT 37/18 A2996 RMK A01 T03660180  RH  033%=      5-min Rain = 0
KCH1 162147Z 17012KT 37/18 A2996 RMK A01 T03660176  RH  033%=      5-min Rain = 0
KCH1 162148Z 17009KT 37/18 A2996 RMK A01 T03650177  RH  033%=      5-min Rain = 0
KCH1 162149Z 16005KT 36/18 A2996 RMK A01 T03640177  RH  033%=      5-min Rain = 0
KCH1 162150Z 16004G9KT 37/18 A2996 RMK A01 T03650182  RH  034%=      5-min Rain = 0
KCH1 162151Z 17007G15KT 37/18 A2996 RMK A01 T03680177  RH  032%=      5-min Rain = 0
KCH1 162152Z 17010G15KT 37/18 A2996 RMK A01 T03670180  RH  033%=      5-min Rain = 0
KCH1 162153Z 16009KT 37/18 A2996 RMK A01 T03670180  RH  034%=      5-min Rain = 0
KCH1 162154Z 18008KT 37/18 A2996 RMK A01 T03660183  RH  034%=      5-min Rain = 0
KCH1 162155Z 19011KT 37/18 A2996 RMK A01 T03670180  RH  033%=      5-min Rain = 0
KCH1 162156Z 20009KT 37/18 A2996 RMK A01 T03650178  RH  033%=      5-min Rain = 0
KCH1 162157Z 19009KT 36/18 A2996 RMK A01 T03640179  RH  034%=      5-min Rain = 0
KCH1 162158Z 19007KT 36/18 A2996 RMK A01 T03630176  RH  033%=      5-min Rain = 0
KCH1 162159Z 19007KT 36/18 A2995 RMK A01 T03620175  RH  033%=      5-min Rain = 0
KCH1 162200Z 19007KT 36/18 A2995 RMK A01 T03620175  RH  033%=      5-min Rain = 0
KCH1 162201Z 16007KT 36/18 A2995 RMK A01 T03620177  RH  034%=      5-min Rain = 0
KCH1 162202Z 15007KT 36/18 A2995 RMK A01 T03640176  RH  033%=      5-min Rain = 0
KCH1 162203Z 15008KT 37/18 A2995 RMK A01 T03650175  RH  033%=      5-min Rain = 0
KCH1 162204Z 15005KT 37/17 A2995 RMK A01 T03650173  RH  032%=      5-min Rain = 0
KCH1 162205Z 16006KT 37/18 A2995 RMK A01 T03650175  RH  033%=      5-min Rain = 0
KCH1 162206Z 18007KT 37/18 A2995 RMK A01 T03670178  RH  033%=      5-min Rain = 0
KCH1 162207Z 17008KT 37/18 A2995 RMK A01 T03680175  RH  032%=      5-min Rain = 0
KCH1 162208Z 17007KT 37/18 A2995 RMK A01 T03680179  RH  033%=      5-min Rain = 0
KCH1 162209Z 19010KT 37/18 A2995 RMK A01 T03690178  RH  033%=      5-min Rain = 0
KCH1 162210Z 20007KT 37/18 A2995 RMK A01 T03690179  RH  033%=      5-min Rain = 0
KCH1 162211Z 20009KT 37/17 A2995 RMK A01 T03680174  RH  032%=      5-min Rain = 0
KCH1 162212Z 19007KT 37/18 A2995 RMK A01 T03660179  RH  033%=      5-min Rain = 0
KCH1 162213Z 18010KT 37/18 A2995 RMK A01 T03680175  RH  032%=      5-min Rain = 0
KCH1 162214Z 19006G11KT 37/18 A2995 RMK A01 T03680176  RH  032%=      5-min Rain = 0
KCH1 162215Z 17010KT 37/17 A2995 RMK A01 T03680174  RH  032%=      5-min Rain = 0
KCH1 162216Z 18009KT 37/18 A2995 RMK A01 T03670177  RH  033%=      5-min Rain = 0
KCH1 162217Z 18008KT 37/18 A2995 RMK A01 T03660177  RH  033%=      5-min Rain = 0
KCH1 162218Z 19006KT 37/18 A2995 RMK A01 T03660180  RH  034%=      5-min Rain = 0
KCH1 162219Z 19010G15KT 37/18 A2995 RMK A01 T03680180  RH  033%=      5-min Rain = 0
KCH1 162220Z 18011KT 37/18 A2995 RMK A01 T03690178  RH  033%=      5-min Rain = 0
KCH1 162221Z 19009KT 37/18 A2995 RMK A01 T03670181  RH  033%=      5-min Rain = 0
KCH1 162222Z 19009KT 37/18 A2995 RMK A01 T03670180  RH  033%=      5-min Rain = 0
KCH1 162223Z 20010KT 37/18 A2995 RMK A01 T03660177  RH  033%=      5-min Rain = 0
KCH1 162224Z 18009KT 37/18 A2995 RMK A01 T03650177  RH  033%=      5-min Rain = 0
KCH1 162225Z 19008KT 36/18 A2995 RMK A01 T03640176  RH  033%=      5-min Rain = 0
KCH1 162226Z 19006KT 36/18 A2995 RMK A01 T03640176  RH  033%=      5-min Rain = 0
KCH1 162227Z 18008KT 36/18 A2995 RMK A01 T03640175  RH  033%=      5-min Rain = 0
KCH1 162228Z 16009KT 37/17 A2995 RMK A01 T03650174  RH  033%=      5-min Rain = 0
KCH1 162229Z 16012KT 37/17 A2995 RMK A01 T03650172  RH  032%=      5-min Rain = 0
KCH1 162230Z 18011KT 36/17 A2995 RMK A01 T03640174  RH  033%=      5-min Rain = 0
KCH1 162231Z 19013KT 36/17 A2994 RMK A01 T03640174  RH  033%=      5-min Rain = 0
KCH1 162232Z 19010KT 36/18 A2994 RMK A01 T03630175  RH  033%=      5-min Rain = 0
KCH1 162233Z 19011KT 36/17 A2994 RMK A01 T03630174  RH  033%=      5-min Rain = 0
KCH1 162234Z 18010KT 36/18 A2994 RMK A01 T03640177  RH  033%=      5-min Rain = 0
KCH1 162235Z 18010KT 36/17 A2994 RMK A01 T03640171  RH  032%=      5-min Rain = 0
KCH1 162236Z 16008KT 36/18 A2994 RMK A01 T03630176  RH  033%=      5-min Rain = 0
KCH1 162237Z 17010KT 37/18 A2994 RMK A01 T03650175  RH  033%=      5-min Rain = 0
KCH1 162238Z 18009KT 37/17 A2994 RMK A01 T03660172  RH  032%=      5-min Rain = 0
KCH1 162239Z 18007KT 37/17 A2994 RMK A01 T03650173  RH  032%=      5-min Rain = 0
KCH1 162240Z 20005KT 37/17 A2994 RMK A01 T03650173  RH  032%=      5-min Rain = 0
KCH1 162241Z 22007KT 37/17 A2994 RMK A01 T03650173  RH  032%=      5-min Rain = 0
KCH1 162242Z 21009KT 37/17 A2994 RMK A01 T03660171  RH  032%=      5-min Rain = 0
KCH1 162243Z 19007KT 37/17 A2994 RMK A01 T03650172  RH  032%=      5-min Rain = 0
KCH1 162244Z 20006KT 36/17 A2994 RMK A01 T03640173  RH  032%=      5-min Rain = 0
KCH1 162245Z 19008KT 37/17 A2994 RMK A01 T03660173  RH  032%=      5-min Rain = 0
KCH1 162246Z 18008KT 37/17 A2994 RMK A01 T03670172  RH  032%=      5-min Rain = 0
KCH1 162247Z 16007KT 37/17 A2994 RMK A01 T03660173  RH  032%=      5-min Rain = 0
KCH1 162248Z 20008KT 37/18 A2994 RMK A01 T03670175  RH  032%=      5-min Rain = 0
KCH1 162249Z 19010KT 37/17 A2994 RMK A01 T03680174  RH  032%=      5-min Rain = 0
KCH1 162250Z 16007KT 37/18 A2994 RMK A01 T03680176  RH  032%=      5-min Rain = 0
KCH1 162251Z 13008KT 37/18 A2994 RMK A01 T03680177  RH  033%=      5-min Rain = 0
KCH1 162252Z 13009KT 37/18 A2994 RMK A01 T03670177  RH  033%=      5-min Rain = 0
KCH1 162253Z 15012KT 37/18 A2994 RMK A01 T03660179  RH  033%=      5-min Rain = 0
KCH1 162254Z 14010KT 37/18 A2994 RMK A01 T03670177  RH  033%=      5-min Rain = 0
KCH1 162255Z 16008KT 37/18 A2994 RMK A01 T03660178  RH  033%=      5-min Rain = 0
KCH1 162256Z 18008KT 37/18 A2994 RMK A01 T03650178  RH  033%=      5-min Rain = 0
KCH1 162257Z 19006G11KT 37/17 A2993 RMK A01 T03660173  RH  032%=      5-min Rain = 0
KCH1 162258Z 19007KT 37/17 A2993 RMK A01 T03660174  RH  032%=      5-min Rain = 0
KCH1 162259Z 18008KT 37/18 A2993 RMK A01 T03660175  RH  033%=      5-min Rain = 0
KCH1 162300Z 18010KT 37/18 A2993 RMK A01 T03670175  RH  032%=      5-min Rain = 0
KCH1 162301Z 20009KT 37/17 A2993 RMK A01 T03670172  RH  032%=      5-min Rain = 0
KCH1 162302Z 19009KT 37/17 A2993 RMK A01 T03660169  RH  031%=      5-min Rain = 0
KCH1 162303Z 18012KT 36/17 A2993 RMK A01 T03640169  RH  032%=      5-min Rain = 0
KCH1 162304Z 17009KT 36/17 A2993 RMK A01 T03630170  RH  032%=      5-min Rain = 0
KCH1 162305Z 19010G15KT 36/17 A2993 RMK A01 T03630170  RH  032%=      5-min Rain = 0
KCH1 162306Z 19008KT 36/17 A2993 RMK A01 T03630173  RH  033%=      5-min Rain = 0
KCH1 162307Z 17006KT 36/17 A2993 RMK A01 T03640173  RH  033%=      5-min Rain = 0
KCH1 162308Z 18006KT 37/18 A2993 RMK A01 T03650177  RH  033%=      5-min Rain = 0
KCH1 162309Z 18007KT 37/18 A2993 RMK A01 T03660175  RH  032%=      5-min Rain = 0
KCH1 162310Z 19009G14KT 37/18 A2993 RMK A01 T03660177  RH  033%=      5-min Rain = 0
KCH1 162311Z 17008KT 37/18 A2993 RMK A01 T03660177  RH  033%=      5-min Rain = 0
KCH1 162312Z 18009KT 37/18 A2993 RMK A01 T03650178  RH  033%=      5-min Rain = 0
KCH1 162313Z 18009KT 36/17 A2993 RMK A01 T03640172  RH  032%=      5-min Rain = 0
KCH1 162314Z 18009KT 36/17 A2993 RMK A01 T03610172  RH  033%=      5-min Rain = 0
KCH1 162315Z 17006KT 36/17 A2993 RMK A01 T03590172  RH  033%=      5-min Rain = 0
KCH1 162316Z 18005KT 36/17 A2993 RMK A01 T03580174  RH  034%=      5-min Rain = 0
KCH1 162317Z 19009KT 36/18 A2993 RMK A01 T03590177  RH  034%=      5-min Rain = 0
KCH1 162318Z 18010G15KT 36/18 A2993 RMK A01 T03600177  RH  034%=      5-min Rain = 0
KCH1 162319Z 15009KT 36/18 A2993 RMK A01 T03610179  RH  034%=      5-min Rain = 0
KCH1 162320Z 16009KT 36/18 A2993 RMK A01 T03630182  RH  035%=      5-min Rain = 0
KCH1 162321Z 13008G14KT 37/18 A2993 RMK A01 T03650180  RH  034%=      5-min Rain = 0
KCH1 162322Z 14011KT 37/18 A2993 RMK A01 T03660177  RH  033%=      5-min Rain = 0
KCH1 162323Z 17011KT 37/18 A2993 RMK A01 T03650178  RH  033%=      5-min Rain = 0
KCH1 162324Z 17008KT 37/18 A2993 RMK A01 T03660179  RH  033%=      5-min Rain = 0
KCH1 162325Z 16008KT 37/17 A2993 RMK A01 T03660174  RH  032%=      5-min Rain = 0
KCH1 162326Z 17008KT 37/18 A2993 RMK A01 T03650175  RH  033%=      5-min Rain = 0
KCH1 162327Z 18008KT 37/18 A2993 RMK A01 T03650178  RH  033%=      5-min Rain = 0
KCH1 162328Z 15009KT 37/18 A2993 RMK A01 T03650179  RH  034%=      5-min Rain = 0
KCH1 162329Z 14012KT 36/18 A2993 RMK A01 T03640179  RH  034%=      5-min Rain = 0
KCH1 162330Z 12009KT 36/18 A2993 RMK A01 T03620180  RH  034%=      5-min Rain = 0
KCH1 162331Z 14008KT 36/18 A2993 RMK A01 T03620179  RH  034%=      5-min Rain = 0
KCH1 162332Z 15006KT 36/18 A2993 RMK A01 T03610183  RH  035%=      5-min Rain = 0
KCH1 162333Z 16011KT 36/18 A2993 RMK A01 T03620182  RH  035%=      5-min Rain = 0
KCH1 162334Z 15010KT 36/18 A2993 RMK A01 T03620182  RH  035%=      5-min Rain = 0
KCH1 162335Z 14009KT 36/18 A2993 RMK A01 T03610182  RH  035%=      5-min Rain = 0
KCH1 162336Z 13011KT 36/18 A2993 RMK A01 T03610183  RH  035%=      5-min Rain = 0
KCH1 162337Z 13011KT 36/18 A2993 RMK A01 T03610181  RH  035%=      5-min Rain = 0
KCH1 162338Z 13010KT 36/18 A2993 RMK A01 T03600181  RH  035%=      5-min Rain = 0
KCH1 162339Z 13010KT 36/18 A2993 RMK A01 T03580179  RH  035%=      5-min Rain = 0
KCH1 162340Z 11009KT 36/18 A2993 RMK A01 T03580184  RH  036%=      5-min Rain = 0
KCH1 162341Z 12009KT 36/18 A2993 RMK A01 T03590183  RH  036%=      5-min Rain = 0
KCH1 162342Z 12013KT 36/18 A2993 RMK A01 T03590181  RH  035%=      5-min Rain = 0
KCH1 162343Z 12010KT 36/18 A2993 RMK A01 T03590183  RH  036%=      5-min Rain = 0
KCH1 162344Z 12011KT 36/18 A2993 RMK A01 T03590183  RH  036%=      5-min Rain = 0
KCH1 162345Z 14011KT 36/19 A2993 RMK A01 T03600185  RH  036%=      5-min Rain = 0
KCH1 162346Z 15014KT 36/18 A2993 RMK A01 T03610180  RH  035%=      5-min Rain = 0
KCH1 162347Z 15011G16KT 36/18 A2993 RMK A01 T03600181  RH  035%=      5-min Rain = 0
KCH1 162348Z 15014KT 36/18 A2993 RMK A01 T03600179  RH  035%=      5-min Rain = 0
KCH1 162349Z 15011KT 36/18 A2993 RMK A01 T03580179  RH  035%=      5-min Rain = 0
KCH1 162350Z 15012KT 36/18 A2993 RMK A01 T03580180  RH  035%=      5-min Rain = 0
KCH1 162351Z 16011KT 36/18 A2993 RMK A01 T03580180  RH  035%=      5-min Rain = 0
KCH1 162352Z 15011KT 36/18 A2993 RMK A01 T03580180  RH  035%=      5-min Rain = 0
KCH1 162353Z 15011KT 36/18 A2993 RMK A01 T03580180  RH  035%=      5-min Rain = 0
KCH1 162354Z 16011KT 36/18 A2993 RMK A01 T03570180  RH  035%=      5-min Rain = 0
KCH1 162355Z 16009KT 36/18 A2993 RMK A01 T03560179  RH  035%=      5-min Rain = 0
KCH1 162356Z 16010KT 36/18 A2993 RMK A01 T03560180  RH  036%=      5-min Rain = 0
KCH1 162357Z 15008KT 36/18 A2993 RMK A01 T03560182  RH  036%=      5-min Rain = 0
KCH1 162358Z 14009KT 36/18 A2993 RMK A01 T03560184  RH  036%=      5-min Rain = 0
KCH1 162359Z 14011KT 36/19 A2993 RMK A01 T03570185  RH  036%=      5-min Rain = 0
KCH1 170000Z 15014KT 36/18 A2993 RMK A01 T03560184  RH  036%=      5-min Rain = 0
KCH1 170001Z 13012KT 36/18 A2993 RMK A01 T03550183  RH  036%=      5-min Rain = 0
KCH1 170002Z 14011G16KT 35/18 A2993 RMK A01 T03540184  RH  037%=      5-min Rain = 0
KCH1 170003Z 15009KT 35/18 A2993 RMK A01 T03540184  RH  037%=      5-min Rain = 0
KCH1 170004Z 15011KT 35/18 A2993 RMK A01 T03540184  RH  037%=      5-min Rain = 0
KCH1 170005Z 15011KT 35/18 A2993 RMK A01 T03540184  RH  037%=      5-min Rain = 0
KCH1 170006Z 16007KT 35/19 A2993 RMK A01 T03540186  RH  037%=      5-min Rain = 0
KCH1 170007Z 14012G17KT 35/19 A2993 RMK A01 T03540186  RH  037%=      5-min Rain = 0
KCH1 170008Z 14013KT 35/18 A2993 RMK A01 T03540184  RH  037%=      5-min Rain = 0
KCH1 170009Z 15010G15KT 35/18 A2993 RMK A01 T03530183  RH  037%=      5-min Rain = 0
KCH1 170010Z 17009KT 35/19 A2993 RMK A01 T03530186  RH  037%=      5-min Rain = 0
KCH1 170011Z 16009KT 35/19 A2993 RMK A01 T03530188  RH  038%=      5-min Rain = 0
KCH1 170012Z 16012KT 35/18 A2993 RMK A01 T03520184  RH  037%=      5-min Rain = 0
KCH1 170013Z 16010KT 35/18 A2993 RMK A01 T03500183  RH  037%=      5-min Rain = 0
KCH1 170014Z 16009KT 35/18 A2993 RMK A01 T03480182  RH  038%=      5-min Rain = 0
KCH1 170015Z 16011KT 35/18 A2993 RMK A01 T03490181  RH  037%=      5-min Rain = 0
KCH1 170016Z 15008KT 35/18 A2993 RMK A01 T03490181  RH  037%=      5-min Rain = 0
KCH1 170017Z 15010G15KT 35/18 A2993 RMK A01 T03500183  RH  037%=      5-min Rain = 0
KCH1 170018Z 15011KT 35/18 A2993 RMK A01 T03510182  RH  037%=      5-min Rain = 0
KCH1 170019Z 15010KT 35/18 A2993 RMK A01 T03510181  RH  037%=      5-min Rain = 0
KCH1 170020Z 16010KT 35/18 A2993 RMK A01 T03500183  RH  037%=      5-min Rain = 0
KCH1 170021Z 16012KT 35/18 A2993 RMK A01 T03500183  RH  037%=      5-min Rain = 0
KCH1 170022Z 15010KT 35/18 A2993 RMK A01 T03490184  RH  038%=      5-min Rain = 0
KCH1 170023Z 15009KT 35/19 A2993 RMK A01 T03490185  RH  038%=      5-min Rain = 0
KCH1 170024Z 16008KT 35/19 A2993 RMK A01 T03490186  RH  038%=      5-min Rain = 0
KCH1 170025Z 15008KT 35/19 A2993 RMK A01 T03480186  RH  038%=      5-min Rain = 0
KCH1 170026Z 17010KT 35/19 A2993 RMK A01 T03480186  RH  039%=      5-min Rain = 0
KCH1 170027Z 15010KT 35/19 A2993 RMK A01 T03480186  RH  038%=      5-min Rain = 0
KCH1 170028Z 16009KT 35/19 A2993 RMK A01 T03470185  RH  038%=      5-min Rain = 0
KCH1 170029Z 16010G17KT 35/19 A2993 RMK A01 T03480185  RH  038%=      5-min Rain = 0
KCH1 170030Z 16012KT 35/18 A2993 RMK A01 T03480184  RH  038%=      5-min Rain = 0
KCH1 170031Z 15009KT 35/19 A2993 RMK A01 T03480185  RH  038%=      5-min Rain = 0
KCH1 170032Z 15011KT 35/18 A2994 RMK A01 T03480184  RH  038%=      5-min Rain = 0
KCH1 170033Z 14011KT 35/18 A2994 RMK A01 T03470184  RH  038%=      5-min Rain = 0
KCH1 170034Z 14011KT 35/19 A2994 RMK A01 T03470185  RH  038%=      5-min Rain = 0
KCH1 170035Z 15010KT 35/19 A2994 RMK A01 T03470186  RH  039%=      5-min Rain = 0
KCH1 170036Z 14009KT 35/19 A2994 RMK A01 T03460185  RH  039%=      5-min Rain = 0
KCH1 170037Z 14010KT 35/19 A2994 RMK A01 T03460187  RH  039%=      5-min Rain = 0
KCH1 170038Z 14011KT 35/19 A2993 RMK A01 T03460185  RH  039%=      5-min Rain = 0
KCH1 170039Z 14011KT 35/19 A2993 RMK A01 T03450185  RH  039%=      5-min Rain = 0
KCH1 170040Z 15008KT 35/19 A2993 RMK A01 T03450186  RH  039%=      5-min Rain = 0
KCH1 170041Z 15010KT 34/19 A2993 RMK A01 T03440187  RH  039%=      5-min Rain = 0
KCH1 170042Z 15009KT 34/19 A2993 RMK A01 T03440186  RH  039%=      5-min Rain = 0
KCH1 170043Z 16006KT 34/19 A2993 RMK A01 T03430187  RH  040%=      5-min Rain = 0
KCH1 170044Z 15007KT 34/19 A2993 RMK A01 T03430188  RH  040%=      5-min Rain = 0
KCH1 170045Z 15010KT 34/19 A2993 RMK A01 T03420185  RH  039%=      5-min Rain = 0
KCH1 170046Z 15011KT 34/19 A2993 RMK A01 T03420185  RH  040%=      5-min Rain = 0
KCH1 170047Z 15011KT 34/19 A2994 RMK A01 T03420185  RH  040%=      5-min Rain = 0
KCH1 170048Z 15009KT 34/18 A2994 RMK A01 T03410184  RH  040%=      5-min Rain = 0
KCH1 170049Z 15007KT 34/19 A2994 RMK A01 T03410185  RH  040%=      5-min Rain = 0
KCH1 170050Z 15008KT 34/19 A2994 RMK A01 T03410186  RH  040%=      5-min Rain = 0
KCH1 170051Z 15007KT 34/19 A2994 RMK A01 T03400186  RH  040%=      5-min Rain = 0
KCH1 170052Z 15008KT 34/19 A2994 RMK A01 T03400187  RH  040%=      5-min Rain = 0
KCH1 170053Z 15009KT 34/19 A2994 RMK A01 T03400186  RH  040%=      5-min Rain = 0
KCH1 170054Z 15008KT 34/19 A2994 RMK A01 T03410188  RH  041%=      5-min Rain = 0
KCH1 170055Z 15008KT 34/19 A2994 RMK A01 T03400187  RH  040%=      5-min Rain = 0
KCH1 170056Z 14006KT 34/19 A2994 RMK A01 T03400188  RH  041%=      5-min Rain = 0
KCH1 170057Z 15006KT 34/19 A2994 RMK A01 T03400190  RH  041%=      5-min Rain = 0
KCH1 170058Z 15008KT 34/19 A2994 RMK A01 T03390188  RH  041%=      5-min Rain = 0
KCH1 170059Z 15007KT 34/19 A2994 RMK A01 T03380188  RH  041%=      5-min Rain = 0
KCH1 170100Z 15006KT 34/19 A2994 RMK A01 T03380188  RH  041%=      5-min Rain = 0
KCH1 170101Z 15005KT 34/19 A2994 RMK A01 T03370189  RH  042%=      5-min Rain = 0
KCH1 170102Z 15008KT 34/19 A2994 RMK A01 T03370188  RH  042%=      5-min Rain = 0
KCH1 170103Z 15008KT 34/19 A2994 RMK A01 T03360188  RH  041%=      5-min Rain = 0
KCH1 170104Z 16008KT 34/19 A2994 RMK A01 T03360187  RH  041%=      5-min Rain = 0
KCH1 170105Z 15007KT 34/19 A2994 RMK A01 T03360188  RH  042%=      5-min Rain = 0
KCH1 170106Z 15008KT 34/19 A2994 RMK A01 T03350187  RH  042%=      5-min Rain = 0
KCH1 170107Z 15010KT 34/19 A2994 RMK A01 T03350187  RH  042%=      5-min Rain = 0
KCH1 170108Z 15009KT 34/19 A2994 RMK A01 T03350187  RH  042%=      5-min Rain = 0
KCH1 170109Z 15007KT 33/19 A2994 RMK A01 T03340187  RH  042%=      5-min Rain = 0
KCH1 170110Z 15007KT 33/19 A2994 RMK A01 T03340187  RH  042%=      5-min Rain = 0
KCH1 170111Z 15006KT 33/19 A2994 RMK A01 T03330188  RH  042%=      5-min Rain = 0
KCH1 170112Z 16009KT 33/19 A2994 RMK A01 T03320187  RH  042%=      5-min Rain = 0
KCH1 170113Z 15009KT 33/19 A2994 RMK A01 T03320186  RH  042%=      5-min Rain = 0
KCH1 170114Z 15008KT 33/19 A2994 RMK A01 T03320186  RH  042%=      5-min Rain = 0
KCH1 170115Z 15008KT 33/19 A2994 RMK A01 T03320186  RH  042%=      5-min Rain = 0
KCH1 170116Z 16009KT 33/19 A2994 RMK A01 T03320186  RH  042%=      5-min Rain = 0
KCH1 170117Z 15010KT 33/19 A2994 RMK A01 T03320186  RH  042%=      5-min Rain = 0
KCH1 170118Z 16008KT 33/19 A2994 RMK A01 T03320185  RH  042%=      5-min Rain = 0
KCH1 170119Z 16008KT 33/19 A2994 RMK A01 T03310186  RH  042%=      5-min Rain = 0
KCH1 170120Z 15008KT 33/19 A2994 RMK A01 T03310186  RH  042%=      5-min Rain = 0
KCH1 170121Z 15007KT 33/19 A2994 RMK A01 T03310186  RH  042%=      5-min Rain = 0
KCH1 170122Z 15007KT 33/19 A2994 RMK A01 T03300186  RH  042%=      5-min Rain = 0
KCH1 170123Z 15006KT 33/19 A2994 RMK A01 T03300186  RH  042%=      5-min Rain = 0
KCH1 170124Z 15007KT 33/19 A2994 RMK A01 T03290186  RH  043%=      5-min Rain = 0
KCH1 170125Z 15006KT 33/19 A2994 RMK A01 T03290186  RH  043%=      5-min Rain = 0
KCH1 170126Z 14006KT 33/19 A2994 RMK A01 T03280186  RH  043%=      5-min Rain = 0
KCH1 170127Z 15006KT 33/19 A2994 RMK A01 T03270186  RH  043%=      5-min Rain = 0
KCH1 170128Z 15006KT 33/19 A2994 RMK A01 T03260186  RH  043%=      5-min Rain = 0
KCH1 170129Z 14005KT 33/19 A2994 RMK A01 T03260186  RH  044%=      5-min Rain = 0
KCH1 170130Z 15006KT 33/19 A2994 RMK A01 T03260186  RH  044%=      5-min Rain = 0
KCH1 170131Z 15006KT 33/19 A2994 RMK A01 T03250187  RH  044%=      5-min Rain = 0
KCH1 170132Z 15006KT 33/19 A2994 RMK A01 T03250187  RH  044%=      5-min Rain = 0
KCH1 170133Z 14007KT 32/19 A2994 RMK A01 T03240186  RH  044%=      5-min Rain = 0
KCH1 170134Z 14008KT 32/19 A2994 RMK A01 T03240186  RH  044%=      5-min Rain = 0
KCH1 170135Z 14008KT 32/19 A2994 RMK A01 T03240186  RH  044%=      5-min Rain = 0
KCH1 170136Z 15007KT 32/19 A2994 RMK A01 T03240187  RH  044%=      5-min Rain = 0
KCH1 170137Z 14008KT 32/19 A2994 RMK A01 T03230187  RH  044%=      5-min Rain = 0
KCH1 170138Z 14007KT 32/19 A2994 RMK A01 T03230186  RH  044%=      5-min Rain = 0
KCH1 170139Z 14008KT 32/19 A2994 RMK A01 T03230187  RH  044%=      5-min Rain = 0
KCH1 170140Z 15007KT 32/19 A2994 RMK A01 T03230187  RH  045%=      5-min Rain = 0
KCH1 170141Z 15006KT 32/19 A2994 RMK A01 T03220187  RH  045%=      5-min Rain = 0
KCH1 170142Z 14006KT 32/19 A2994 RMK A01 T03220187  RH  045%=      5-min Rain = 0
KCH1 170143Z 14005KT 32/19 A2994 RMK A01 T03210187  RH  045%=      5-min Rain = 0
KCH1 170144Z 15006KT 32/19 A2994 RMK A01 T03200188  RH  045%=      5-min Rain = 0
KCH1 170145Z 15005KT 32/19 A2994 RMK A01 T03190187  RH  045%=      5-min Rain = 0
KCH1 170146Z 15007KT 32/19 A2994 RMK A01 T03190187  RH  046%=      5-min Rain = 0
KCH1 170147Z 15007KT 32/19 A2994 RMK A01 T03180187  RH  046%=      5-min Rain = 0
KCH1 170148Z 14007KT 32/19 A2994 RMK A01 T03180187  RH  046%=      5-min Rain = 0
KCH1 170149Z 15006KT 32/19 A2994 RMK A01 T03180187  RH  046%=      5-min Rain = 0
KCH1 170150Z 14006KT 32/19 A2995 RMK A01 T03180187  RH  046%=      5-min Rain = 0
KCH1 170151Z 15005KT 32/19 A2995 RMK A01 T03170187  RH  046%=      5-min Rain = 0
KCH1 170152Z 14006KT 32/19 A2995 RMK A01 T03160187  RH  046%=      5-min Rain = 0
KCH1 170153Z 15005KT 32/19 A2995 RMK A01 T03160187  RH  046%=      5-min Rain = 0
KCH1 170154Z 15005KT 32/19 A2995 RMK A01 T03160187  RH  046%=      5-min Rain = 0
KCH1 170155Z 14005KT 32/19 A2995 RMK A01 T03160188  RH  047%=      5-min Rain = 0
KCH1 170156Z 14005KT 32/19 A2995 RMK A01 T03150188  RH  047%=      5-min Rain = 0
KCH1 170157Z 14006KT 31/19 A2995 RMK A01 T03140187  RH  047%=      5-min Rain = 0
KCH1 170158Z 14006KT 31/19 A2995 RMK A01 T03140187  RH  047%=      5-min Rain = 0
KCH1 170159Z 14005KT 31/19 A2995 RMK A01 T03140187  RH  047%=      5-min Rain = 0
KCH1 170200Z 14006KT 31/19 A2995 RMK A01 T03130188  RH  047%=      5-min Rain = 0
KCH1 170201Z 14005KT 31/19 A2995 RMK A01 T03130188  RH  048%=      5-min Rain = 0
KCH1 170202Z 14006KT 31/19 A2995 RMK A01 T03110188  RH  048%=      5-min Rain = 0
KCH1 170203Z 15007KT 31/19 A2995 RMK A01 T03110188  RH  048%=      5-min Rain = 0
KCH1 170204Z 15007KT 31/19 A2995 RMK A01 T03110188  RH  048%=      5-min Rain = 0
KCH1 170205Z 15006KT 31/19 A2995 RMK A01 T03110188  RH  048%=      5-min Rain = 0
KCH1 170206Z 15006KT 31/19 A2995 RMK A01 T03110188  RH  048%=      5-min Rain = 0
KCH1 170207Z 14007KT 31/19 A2995 RMK A01 T03110188  RH  048%=      5-min Rain = 0
KCH1 170208Z 15006KT 31/19 A2995 RMK A01 T03100188  RH  048%=      5-min Rain = 0
KCH1 170209Z 15005KT 31/19 A2995 RMK A01 T03100188  RH  048%=      5-min Rain = 0
KCH1 170210Z 15006KT 31/19 A2995 RMK A01 T03090188  RH  049%=      5-min Rain = 0
KCH1 170211Z 14006KT 31/19 A2995 RMK A01 T03080188  RH  049%=      5-min Rain = 0
KCH1 170212Z 14006KT 31/19 A2995 RMK A01 T03080188  RH  049%=      5-min Rain = 0
KCH1 170213Z 14006KT 31/19 A2995 RMK A01 T03080188  RH  049%=      5-min Rain = 0
KCH1 170214Z 15005KT 31/19 A2995 RMK A01 T03070188  RH  049%=      5-min Rain = 0
KCH1 170215Z 14006KT 31/19 A2995 RMK A01 T03070188  RH  049%=      5-min Rain = 0
KCH1 170216Z 14006KT 31/19 A2995 RMK A01 T03070189  RH  049%=      5-min Rain = 0
KCH1 170217Z 14006KT 31/19 A2995 RMK A01 T03060189  RH  050%=      5-min Rain = 0
KCH1 170218Z 14006KT 31/19 A2995 RMK A01 T03060188  RH  050%=      5-min Rain = 0
KCH1 170219Z 14005KT 31/19 A2995 RMK A01 T03050189  RH  050%=      5-min Rain = 0
KCH1 170220Z 14005KT 31/19 A2995 RMK A01 T03050189  RH  050%=      5-min Rain = 0
KCH1 170221Z 15006KT 31/19 A2996 RMK A01 T03050189  RH  050%=      5-min Rain = 0
KCH1 170222Z 14006KT 31/19 A2996 RMK A01 T03050189  RH  050%=      5-min Rain = 0
KCH1 170223Z 14006KT 30/19 A2996 RMK A01 T03040188  RH  050%=      5-min Rain = 0
KCH1 170224Z 14007KT 31/19 A2996 RMK A01 T03050188  RH  050%=      5-min Rain = 0
KCH1 170225Z 14007KT 31/19 A2996 RMK A01 T03050188  RH  050%=      5-min Rain = 0
KCH1 170226Z 14007KT 31/19 A2996 RMK A01 T03050189  RH  050%=      5-min Rain = 0
KCH1 170227Z 14007KT 31/19 A2995 RMK A01 T03050189  RH  050%=      5-min Rain = 0
KCH1 170228Z 15007KT 31/19 A2995 RMK A01 T03050189  RH  050%=      5-min Rain = 0
KCH1 170229Z 15006KT 31/19 A2996 RMK A01 T03050188  RH  050%=      5-min Rain = 0
KCH1 170230Z 15007KT 31/19 A2996 RMK A01 T03050189  RH  050%=      5-min Rain = 0
KCH1 170231Z 15006KT 31/19 A2996 RMK A01 T03050189  RH  050%=      5-min Rain = 0
KCH1 170232Z 15006KT 30/19 A2996 RMK A01 T03040189  RH  050%=      5-min Rain = 0
KCH1 170233Z 15008KT 30/19 A2996 RMK A01 T03040188  RH  050%=      5-min Rain = 0
KCH1 170234Z 15007KT 30/19 A2996 RMK A01 T03040188  RH  050%=      5-min Rain = 0
KCH1 170235Z 15007KT 31/19 A2996 RMK A01 T03050188  RH  050%=      5-min Rain = 0
KCH1 170236Z 15007KT 31/19 A2996 RMK A01 T03050189  RH  050%=      5-min Rain = 0
KCH1 170237Z 15007KT 31/19 A2996 RMK A01 T03050189  RH  050%=      5-min Rain = 0
KCH1 170238Z 15007KT 31/19 A2996 RMK A01 T03050189  RH  050%=      5-min Rain = 0
KCH1 170239Z 15009KT 30/19 A2996 RMK A01 T03040188  RH  050%=      5-min Rain = 0
KCH1 170240Z 15007KT 31/19 A2996 RMK A01 T03050188  RH  050%=      5-min Rain = 0
KCH1 170241Z 15007KT 31/19 A2996 RMK A01 T03060188  RH  049%=      5-min Rain = 0
KCH1 170242Z 15007KT 31/19 A2996 RMK A01 T03060189  RH  050%=      5-min Rain = 0
KCH1 170243Z 15008KT 31/19 A2996 RMK A01 T03050188  RH  050%=      5-min Rain = 0
KCH1 170244Z 15007KT 31/19 A2996 RMK A01 T03060188  RH  050%=      5-min Rain = 0
KCH1 170245Z 15007KT 31/19 A2996 RMK A01 T03050188  RH  050%=      5-min Rain = 0
KCH1 170246Z 15008KT 31/19 A2996 RMK A01 T03060188  RH  049%=      5-min Rain = 0
KCH1 170247Z 15007KT 31/19 A2996 RMK A01 T03060188  RH  049%=      5-min Rain = 0
KCH1 170248Z 15008KT 31/19 A2996 RMK A01 T03060188  RH  049%=      5-min Rain = 0
KCH1 170249Z 15007KT 31/19 A2997 RMK A01 T03060188  RH  049%=      5-min Rain = 0
KCH1 170250Z 15007KT 31/19 A2997 RMK A01 T03050188  RH  050%=      5-min Rain = 0
KCH1 170251Z 15005KT 31/19 A2997 RMK A01 T03050188  RH  050%=      5-min Rain = 0
KCH1 170252Z 15007KT 31/19 A2997 RMK A01 T03050188  RH  050%=      5-min Rain = 0
KCH1 170253Z 15007KT 31/19 A2997 RMK A01 T03050188  RH  050%=      5-min Rain = 0
KCH1 170254Z 15007KT 30/19 A2997 RMK A01 T03040187  RH  050%=      5-min Rain = 0
KCH1 170255Z 15007KT 30/19 A2997 RMK A01 T03040187  RH  050%=      5-min Rain = 0
KCH1 170256Z 15006KT 30/19 A2997 RMK A01 T03040187  RH  050%=      5-min Rain = 0
KCH1 170257Z 15007KT 30/19 A2997 RMK A01 T03040188  RH  050%=      5-min Rain = 0
KCH1 170258Z 15009KT 30/19 A2997 RMK A01 T03040187  RH  050%=      5-min Rain = 0
KCH1 170259Z 15007KT 30/19 A2997 RMK A01 T03040187  RH  050%=      5-min Rain = 0
KCH1 170300Z 15006KT 30/19 A2997 RMK A01 T03040188  RH  050%=      5-min Rain = 0
KCH1 170301Z 15009KT 30/19 A2997 RMK A01 T03040188  RH  050%=      5-min Rain = 0
KCH1 170302Z 15008KT 30/19 A2997 RMK A01 T03040186  RH  050%=      5-min Rain = 0
KCH1 170303Z 15008KT 30/19 A2997 RMK A01 T03040186  RH  049%=      5-min Rain = 0
KCH1 170304Z 15007KT 30/19 A2997 RMK A01 T03040187  RH  049%=      5-min Rain = 0
KCH1 170305Z 15007KT 31/19 A2997 RMK A01 T03050187  RH  049%=      5-min Rain = 0
KCH1 170306Z 15008KT 30/19 A2997 RMK A01 T03040186  RH  049%=      5-min Rain = 0
KCH1 170307Z 15008KT 30/19 A2997 RMK A01 T03040186  RH  049%=      5-min Rain = 0
KCH1 170308Z 15009KT 31/19 A2997 RMK A01 T03050187  RH  049%=      5-min Rain = 0
KCH1 170309Z 15007KT 31/19 A2997 RMK A01 T03050186  RH  049%=      5-min Rain = 0
KCH1 170310Z 15009KT 30/19 A2997 RMK A01 T03040187  RH  049%=      5-min Rain = 0
KCH1 170311Z 15008KT 30/19 A2997 RMK A01 T03040186  RH  049%=      5-min Rain = 0
KCH1 170312Z 16008KT 30/19 A2998 RMK A01 T03040186  RH  049%=      5-min Rain = 0
KCH1 170313Z 15007KT 30/19 A2998 RMK A01 T03040186  RH  049%=      5-min Rain = 0
KCH1 170314Z 16008KT 30/19 A2998 RMK A01 T03030186  RH  049%=      5-min Rain = 0
KCH1 170315Z 15009KT 30/19 A2998 RMK A01 T03030185  RH  049%=      5-min Rain = 0
KCH1 170316Z 15007KT 30/19 A2998 RMK A01 T03030185  RH  049%=      5-min Rain = 0
KCH1 170317Z 15007KT 30/19 A2998 RMK A01 T03030185  RH  049%=      5-min Rain = 0
KCH1 170318Z 16008KT 30/19 A2998 RMK A01 T03030185  RH  049%=      5-min Rain = 0
KCH1 170319Z 16008KT 30/19 A2998 RMK A01 T03030185  RH  049%=      5-min Rain = 0
KCH1 170320Z 16008KT 30/19 A2998 RMK A01 T03030185  RH  049%=      5-min Rain = 0
KCH1 170321Z 15008KT 30/19 A2998 RMK A01 T03030185  RH  049%=      5-min Rain = 0
KCH1 170322Z 16010KT 30/19 A2998 RMK A01 T03030185  RH  049%=      5-min Rain = 0
KCH1 170323Z 15009KT 30/18 A2998 RMK A01 T03030184  RH  049%=      5-min Rain = 0
KCH1 170324Z 16008G13KT 30/19 A2998 RMK A01 T03030185  RH  049%=      5-min Rain = 0
KCH1 170325Z 15009KT 30/19 A2998 RMK A01 T03030185  RH  049%=      5-min Rain = 0
KCH1 170326Z 15010KT 30/19 A2998 RMK A01 T03030185  RH  049%=      5-min Rain = 0
KCH1 170327Z 15009KT 30/18 A2998 RMK A01 T03030184  RH  049%=      5-min Rain = 0
KCH1 170328Z 16010KT 30/18 A2998 RMK A01 T03030184  RH  049%=      5-min Rain = 0
KCH1 170329Z 14008KT 30/18 A2998 RMK A01 T03030184  RH  049%=      5-min Rain = 0
KCH1 170330Z 16007KT 30/18 A2998 RMK A01 T03030184  RH  049%=      5-min Rain = 0
KCH1 170331Z 16008KT 30/19 A2999 RMK A01 T03030185  RH  049%=      5-min Rain = 0
KCH1 170332Z 15008KT 30/19 A2999 RMK A01 T03020185  RH  050%=      5-min Rain = 0
KCH1 170333Z 16010KT 30/19 A2999 RMK A01 T03020185  RH  050%=      5-min Rain = 0
KCH1 170334Z 15009KT 30/19 A2999 RMK A01 T03020185  RH  050%=      5-min Rain = 0
KCH1 170335Z 16009KT 30/19 A2999 RMK A01 T03020185  RH  050%=      5-min Rain = 0
KCH1 170336Z 16008KT 30/19 A2999 RMK A01 T03020185  RH  050%=      5-min Rain = 0
KCH1 170337Z 15010KT 30/19 A2999 RMK A01 T03020185  RH  050%=      5-min Rain = 0
KCH1 170338Z 16010KT 30/19 A2999 RMK A01 T03020186  RH  050%=      5-min Rain = 0
KCH1 170339Z 16009KT 30/19 A2999 RMK A01 T03020186  RH  050%=      5-min Rain = 0
KCH1 170340Z 15010KT 30/19 A2999 RMK A01 T03020186  RH  050%=      5-min Rain = 0
KCH1 170341Z 16008KT 30/19 A2999 RMK A01 T03020186  RH  050%=      5-min Rain = 0
KCH1 170342Z 15007KT 30/19 A2999 RMK A01 T03020186  RH  050%=      5-min Rain = 0
KCH1 170343Z 16006KT 30/19 A2999 RMK A01 T03010186  RH  050%=      5-min Rain = 0
KCH1 170344Z 15010KT 30/19 A2999 RMK A01 T03000187  RH  051%=      5-min Rain = 0
KCH1 170345Z 16009KT 30/19 A2999 RMK A01 T03000186  RH  051%=      5-min Rain = 0
KCH1 170346Z 15007KT 30/19 A2999 RMK A01 T03000186  RH  051%=      5-min Rain = 0
KCH1 170347Z 16008KT 30/19 A2999 RMK A01 T03000187  RH  051%=      5-min Rain = 0
KCH1 170348Z 15008KT 30/19 A2999 RMK A01 T02990187  RH  051%=      5-min Rain = 0
KCH1 170349Z 16009KT 30/19 A2999 RMK A01 T02990187  RH  051%=      5-min Rain = 0
KCH1 170350Z 15008KT 30/19 A2999 RMK A01 T02990188  RH  051%=      5-min Rain = 0
KCH1 170351Z 15008KT 30/19 A2999 RMK A01 T02990188  RH  051%=      5-min Rain = 0
KCH1 170352Z 16009KT 30/19 A2999 RMK A01 T02990188  RH  051%=      5-min Rain = 0
KCH1 170353Z 16008KT 30/19 A2999 RMK A01 T02980188  RH  051%=      5-min Rain = 0
KCH1 170354Z 15007KT 30/19 A2999 RMK A01 T02980188  RH  051%=      5-min Rain = 0
KCH1 170355Z 16009KT 30/19 A2999 RMK A01 T02980188  RH  052%=      5-min Rain = 0
KCH1 170356Z 16009KT 30/19 A2999 RMK A01 T02980188  RH  052%=      5-min Rain = 0
KCH1 170357Z 15009KT 30/19 A2999 RMK A01 T02980188  RH  052%=      5-min Rain = 0
KCH1 170358Z 16008KT 30/19 A30 RMK A01 T02980188  RH  052%=      5-min Rain = 0
KCH1 170359Z 15007KT 30/19 A30 RMK A01 T02980189  RH  052%=      5-min Rain = 0
KCH1 170400Z 16009KT 30/19 A30 RMK A01 T02980189  RH  052%=      5-min Rain = 0
KCH1 170401Z 15008KT 30/19 A30 RMK A01 T02970189  RH  052%=      5-min Rain = 0
KCH1 170402Z 15006KT 30/19 A30 RMK A01 T02970189  RH  052%=      5-min Rain = 0
KCH1 170403Z 15007KT 30/19 A30 RMK A01 T02970189  RH  053%=      5-min Rain = 0
KCH1 170404Z 16006KT 30/19 A30 RMK A01 T02960189  RH  053%=      5-min Rain = 0
KCH1 170405Z 16008KT 30/19 A30 RMK A01 T02960190  RH  053%=      5-min Rain = 0
KCH1 170406Z 15007KT 30/19 A30 RMK A01 T02960189  RH  053%=      5-min Rain = 0
KCH1 170407Z 15007KT 30/19 A30 RMK A01 T02950189  RH  053%=      5-min Rain = 0
KCH1 170408Z 16007KT 30/19 A30 RMK A01 T02950190  RH  053%=      5-min Rain = 0
KCH1 170409Z 15007KT 30/19 A30 RMK A01 T02950190  RH  053%=      5-min Rain = 0
KCH1 170410Z 16007KT 29/19 A30 RMK A01 T02940190  RH  053%=      5-min Rain = 0
KCH1 170411Z 16007KT 29/19 A30 RMK A01 T02940190  RH  054%=      5-min Rain = 0
KCH1 170412Z 16007KT 29/19 A30 RMK A01 T02930190  RH  054%=      5-min Rain = 0
KCH1 170413Z 15008KT 29/19 A30 RMK A01 T02930190  RH  054%=      5-min Rain = 0
KCH1 170414Z 16008KT 29/19 A30 RMK A01 T02930190  RH  054%=      5-min Rain = 0
KCH1 170415Z 15007KT 29/19 A30 RMK A01 T02930191  RH  054%=      5-min Rain = 0
KCH1 170416Z 16008KT 29/19 A30 RMK A01 T02930190  RH  054%=      5-min Rain = 0
KCH1 170417Z 15006KT 29/19 A30 RMK A01 T02930191  RH  054%=      5-min Rain = 0
KCH1 170418Z 15006KT 29/19 A30 RMK A01 T02930191  RH  054%=      5-min Rain = 0
KCH1 170419Z 16009KT 29/19 A30 RMK A01 T02920191  RH  054%=      5-min Rain = 0
KCH1 170420Z 15007KT 29/19 A30 RMK A01 T02920191  RH  054%=      5-min Rain = 0
KCH1 170421Z 16008KT 29/19 A30 RMK A01 T02920191  RH  054%=      5-min Rain = 0
KCH1 170422Z 16008KT 29/19 A30 RMK A01 T02920191  RH  054%=      5-min Rain = 0
KCH1 170423Z 15008KT 29/19 A30 RMK A01 T02920191  RH  055%=      5-min Rain = 0
KCH1 170424Z 15007KT 29/19 A30 RMK A01 T02910191  RH  055%=      5-min Rain = 0
KCH1 170425Z 15007KT 29/19 A30 RMK A01 T02910191  RH  055%=      5-min Rain = 0
KCH1 170426Z 15006KT 29/19 A30 RMK A01 T02900191  RH  055%=      5-min Rain = 0
KCH1 170427Z 15008KT 29/19 A30 RMK A01 T02900191  RH  055%=      5-min Rain = 0
KCH1 170428Z 15008KT 29/19 A30 RMK A01 T02900191  RH  055%=      5-min Rain = 0
KCH1 170429Z 15007KT 29/19 A30 RMK A01 T02900192  RH  055%=      5-min Rain = 0
KCH1 170430Z 15006KT 29/19 A30 RMK A01 T02890192  RH  056%=      5-min Rain = 0
KCH1 170431Z 15006KT 29/19 A30 RMK A01 T02890192  RH  056%=      5-min Rain = 0
KCH1 170432Z 15006KT 29/19 A30 RMK A01 T02880192  RH  056%=      5-min Rain = 0
KCH1 170433Z 15006KT 29/19 A30 RMK A01 T02880192  RH  056%=      5-min Rain = 0
KCH1 170434Z 15007KT 29/19 A30 RMK A01 T02870192  RH  056%=      5-min Rain = 0
KCH1 170435Z 15007KT 29/19 A30 RMK A01 T02870192  RH  056%=      5-min Rain = 0
KCH1 170436Z 14005KT 29/19 A30 RMK A01 T02870192  RH  056%=      5-min Rain = 0
KCH1 170437Z 14006KT 29/19 A30 RMK A01 T02870192  RH  056%=      5-min Rain = 0
KCH1 170438Z 15006KT 29/19 A30 RMK A01 T02870193  RH  057%=      5-min Rain = 0
KCH1 170439Z 14007KT 29/19 A30 RMK A01 T02870193  RH  057%=      5-min Rain = 0
KCH1 170440Z 15007KT 29/19 A30 RMK A01 T02870192  RH  057%=      5-min Rain = 0
KCH1 170441Z 14006KT 29/19 A30 RMK A01 T02870192  RH  057%=      5-min Rain = 0
KCH1 170442Z 15006KT 29/19 A30 RMK A01 T02870193  RH  057%=      5-min Rain = 0
KCH1 170443Z 14005KT 29/19 A30 RMK A01 T02860193  RH  057%=      5-min Rain = 0
KCH1 170444Z 15007KT 28/19 A30 RMK A01 T02840193  RH  058%=      5-min Rain = 0
KCH1 170445Z 15006KT 28/19 A30 RMK A01 T02840193  RH  058%=      5-min Rain = 0
KCH1 170446Z 15005KT 28/19 A30 RMK A01 T02840193  RH  058%=      5-min Rain = 0
KCH1 170447Z 15005KT 28/19 A30 RMK A01 T02840194  RH  058%=      5-min Rain = 0
KCH1 170448Z 15007KT 28/19 A30 RMK A01 T02830193  RH  058%=      5-min Rain = 0
KCH1 170449Z 15006KT 28/19 A30 RMK A01 T02830193  RH  058%=      5-min Rain = 0
KCH1 170450Z 15006KT 28/19 A30 RMK A01 T02830193  RH  058%=      5-min Rain = 0
KCH1 170451Z 15006KT 28/19 A30 RMK A01 T02840194  RH  058%=      5-min Rain = 0
KCH1 170452Z 15006KT 28/19 A30 RMK A01 T02830194  RH  058%=      5-min Rain = 0
KCH1 170453Z 15006KT 28/19 A30 RMK A01 T02830194  RH  059%=      5-min Rain = 0
KCH1 170454Z 15005KT 28/19 A30 RMK A01 T02820194  RH  059%=      5-min Rain = 0
KCH1 170455Z 15005KT 28/19 A30 RMK A01 T02820194  RH  059%=      5-min Rain = 0
KCH1 170456Z 15006KT 28/19 A30 RMK A01 T02810194  RH  059%=      5-min Rain = 0
KCH1 170457Z 14005KT 28/19 A30 RMK A01 T02810194  RH  059%=      5-min Rain = 0
KCH1 170458Z 14005KT 28/19 A30 RMK A01 T02810194  RH  059%=      5-min Rain = 0
KCH1 170459Z 14005KT 28/19 A30 RMK A01 T02810194  RH  059%=      5-min Rain = 0

Page generated in 0.0838 seconds.